KLM789 EHAM-TNCM
Flight info
| Callsign | KLM789 |
|---|---|
| Flight time | 9h 37m |
| Altitude | 34000 |
| Route | BERGI L60 PENIL M144 BAGSO DCT LIMRI/M082F340 DCT 51N020W 49N030W 44N040W/M082F360 34N050W/M082F380 27N056W/M082F400 22N060W DCT OBIKE/N0472F400 L335 TRNKY |
| Aircraft | MD11/H-SDE1E2E3FGHIJ2J3J4J5M1RWXY/LB1D1 |
Departure
| Time | 2026-05-05 00:20 |
|---|---|
| Airport | Amsterdam Airport Schiphol (EHAM) |
Arrival
| Time | 2026-05-05 09:57 |
|---|---|
| Airport | Princess Juliana International Airport (TNCM) |
| Time | Latitude | Longitude | Altitude | Speed | Heading |
|---|---|---|---|---|---|
| 2026-05-04 23:50 | 52.31219 | 4.75592 | 6 ft | 0 kts | 86° |
| 2026-05-05 00:00 | 52.31219 | 4.75591 | 6 ft | 1 kts | 86° |
| 2026-05-05 00:00 | 52.31218 | 4.75552 | 6 ft | 4 kts | 89° |
| 2026-05-05 00:01 | 52.31218 | 4.75509 | 8 ft | 4 kts | 83° |
| 2026-05-05 00:01 | 52.31211 | 4.75470 | 8 ft | 4 kts | 40° |
| 2026-05-05 00:01 | 52.31204 | 4.75462 | 8 ft | 1 kts | 356° |
| 2026-05-05 00:01 | 52.31229 | 4.75459 | 8 ft | 4 kts | 356° |
| 2026-05-05 00:02 | 52.31256 | 4.75457 | 6 ft | 4 kts | 356° |
| 2026-05-05 00:02 | 52.31283 | 4.75454 | 6 ft | 4 kts | 356° |
| 2026-05-05 00:02 | 52.31294 | 4.75453 | 6 ft | 0 kts | 356° |
| 2026-05-05 00:08 | 52.31296 | 4.75453 | 6 ft | 2 kts | 356° |
| 2026-05-05 00:08 | 52.31332 | 4.75450 | 6 ft | 9 kts | 356° |
| 2026-05-05 00:09 | 52.31402 | 4.75443 | 6 ft | 12 kts | 357° |
| 2026-05-05 00:09 | 52.31492 | 4.75416 | 6 ft | 14 kts | 322° |
| 2026-05-05 00:09 | 52.31505 | 4.75257 | 6 ft | 17 kts | 266° |
| 2026-05-05 00:09 | 52.31498 | 4.75046 | 6 ft | 21 kts | 267° |
| 2026-05-05 00:10 | 52.31490 | 4.74814 | 6 ft | 20 kts | 266° |
| 2026-05-05 00:10 | 52.31483 | 4.74607 | 7 ft | 18 kts | 267° |
| 2026-05-05 00:10 | 52.31477 | 4.74421 | 7 ft | 14 kts | 267° |
| 2026-05-05 00:10 | 52.31475 | 4.74281 | 6 ft | 11 kts | 274° |
| 2026-05-05 00:11 | 52.31492 | 4.74189 | 8 ft | 5 kts | 306° |
| 2026-05-05 00:11 | 52.31532 | 4.74159 | 6 ft | 8 kts | 347° |
| 2026-05-05 00:11 | 52.31612 | 4.74160 | 7 ft | 15 kts | 3° |
| 2026-05-05 00:11 | 52.31641 | 4.74163 | 7 ft | 0 kts | 3° |
| 2026-05-05 00:12 | 52.31644 | 4.74163 | 7 ft | 2 kts | 3° |
| 2026-05-05 00:12 | 52.31675 | 4.74166 | 7 ft | 7 kts | 3° |
| 2026-05-05 00:13 | 52.31742 | 4.74173 | 6 ft | 12 kts | 4° |
| 2026-05-05 00:13 | 52.31841 | 4.74183 | 6 ft | 17 kts | 4° |
| 2026-05-05 00:13 | 52.31969 | 4.74190 | 6 ft | 19 kts | 350° |
| 2026-05-05 00:13 | 52.32036 | 4.74026 | 5 ft | 20 kts | 278° |
| 2026-05-05 00:14 | 52.32047 | 4.73774 | 7 ft | 24 kts | 274° |
| 2026-05-05 00:14 | 52.32058 | 4.73483 | 7 ft | 25 kts | 278° |
| 2026-05-05 00:14 | 52.32145 | 4.73277 | 7 ft | 21 kts | 320° |
| 2026-05-05 00:14 | 52.32249 | 4.73132 | 6 ft | 18 kts | 319° |
| 2026-05-05 00:15 | 52.32352 | 4.72987 | 6 ft | 21 kts | 319° |
| 2026-05-05 00:15 | 52.32469 | 4.72824 | 6 ft | 23 kts | 320° |
| 2026-05-05 00:15 | 52.32597 | 4.72645 | 6 ft | 23 kts | 318° |
| 2026-05-05 00:15 | 52.32719 | 4.72454 | 7 ft | 25 kts | 307° |
| 2026-05-05 00:16 | 52.32835 | 4.72232 | 7 ft | 27 kts | 312° |
| 2026-05-05 00:16 | 52.32964 | 4.71997 | 7 ft | 29 kts | 311° |
| 2026-05-05 00:16 | 52.33099 | 4.71744 | 7 ft | 30 kts | 311° |
| 2026-05-05 00:16 | 52.33125 | 4.71493 | 7 ft | 19 kts | 227° |
| 2026-05-05 00:17 | 52.33021 | 4.71339 | 6 ft | 22 kts | 221° |
| 2026-05-05 00:17 | 52.32903 | 4.71170 | 6 ft | 22 kts | 221° |
| 2026-05-05 00:17 | 52.32866 | 4.70958 | 5 ft | 17 kts | 275° |
| 2026-05-05 00:17 | 52.32890 | 4.70891 | 5 ft | 1 kts | 344° |
| 2026-05-05 00:18 | 52.32906 | 4.70895 | 5 ft | 8 kts | 4° |
| 2026-05-05 00:19 | 52.32934 | 4.70899 | 5 ft | 14 kts | 4° |
| 2026-05-05 00:19 | 52.33109 | 4.70917 | 3 ft | 46 kts | 3° |
| 2026-05-05 00:19 | 52.33695 | 4.70971 | 8 ft | 126 kts | 3° |
| 2026-05-05 00:19 | 52.34820 | 4.71084 | 60 ft | 187 kts | 5° |
| 2026-05-05 00:20 | 52.36091 | 4.71211 | 1158 ft | 162 kts | 7° |
| 2026-05-05 00:20 | 52.37173 | 4.71315 | 2428 ft | 164 kts | 4° |
| 2026-05-05 00:20 | 52.38360 | 4.71421 | 3118 ft | 169 kts | 3° |
| 2026-05-05 00:20 | 52.39627 | 4.71532 | 3509 ft | 202 kts | 2° |
| 2026-05-05 00:21 | 52.41129 | 4.71646 | 3706 ft | 233 kts | 359° |
| 2026-05-05 00:21 | 52.42804 | 4.71254 | 3918 ft | 252 kts | 339° |
| 2026-05-05 00:21 | 52.44287 | 4.69782 | 4618 ft | 251 kts | 320° |
| 2026-05-05 00:21 | 52.45579 | 4.67842 | 5173 ft | 255 kts | 315° |
| 2026-05-05 00:22 | 52.46845 | 4.65785 | 5769 ft | 257 kts | 314° |
| 2026-05-05 00:22 | 52.48121 | 4.63686 | 6329 ft | 260 kts | 313° |
| 2026-05-05 00:22 | 52.49398 | 4.61582 | 6864 ft | 262 kts | 313° |
| 2026-05-05 00:22 | 52.50698 | 4.59442 | 7578 ft | 267 kts | 314° |
| 2026-05-05 00:23 | 52.52142 | 4.57513 | 8387 ft | 270 kts | 324° |
| 2026-05-05 00:23 | 52.53761 | 4.55853 | 9133 ft | 277 kts | 327° |
| 2026-05-05 00:23 | 52.55438 | 4.54249 | 9909 ft | 282 kts | 328° |
| 2026-05-05 00:23 | 52.57185 | 4.52599 | 10239 ft | 302 kts | 328° |
| 2026-05-05 00:24 | 52.59086 | 4.50803 | 10390 ft | 328 kts | 328° |
| 2026-05-05 00:24 | 52.61145 | 4.48854 | 10557 ft | 352 kts | 328° |
| 2026-05-05 00:24 | 52.63285 | 4.46833 | 11289 ft | 357 kts | 328° |
| 2026-05-05 00:24 | 52.65454 | 4.44786 | 12003 ft | 362 kts | 329° |
| 2026-05-05 00:25 | 52.67646 | 4.42713 | 12799 ft | 364 kts | 328° |
| 2026-05-05 00:25 | 52.69858 | 4.40617 | 13512 ft | 369 kts | 328° |
| 2026-05-05 00:25 | 52.72080 | 4.38466 | 14183 ft | 372 kts | 326° |
| 2026-05-05 00:25 | 52.74122 | 4.35873 | 14791 ft | 373 kts | 314° |
| 2026-05-05 00:26 | 52.75678 | 4.32472 | 15387 ft | 373 kts | 297° |
| 2026-05-05 00:26 | 52.76706 | 4.28536 | 15987 ft | 375 kts | 289° |
| 2026-05-05 00:26 | 52.77514 | 4.24424 | 16611 ft | 377 kts | 286° |
| 2026-05-05 00:26 | 52.78270 | 4.20266 | 17196 ft | 380 kts | 286° |
| 2026-05-05 00:27 | 52.79038 | 4.16073 | 17821 ft | 382 kts | 286° |
| 2026-05-05 00:27 | 52.79834 | 4.11854 | 18393 ft | 385 kts | 287° |
| 2026-05-05 00:27 | 52.80652 | 4.07624 | 18896 ft | 387 kts | 287° |
| 2026-05-05 00:27 | 52.81488 | 4.03372 | 19394 ft | 390 kts | 287° |
| 2026-05-05 00:28 | 52.82332 | 3.99113 | 19925 ft | 390 kts | 287° |
| 2026-05-05 00:28 | 52.83172 | 3.94884 | 20378 ft | 393 kts | 287° |
| 2026-05-05 00:28 | 52.84028 | 3.90580 | 20876 ft | 395 kts | 287° |
| 2026-05-05 00:28 | 52.84885 | 3.86262 | 21366 ft | 397 kts | 287° |
| 2026-05-05 00:29 | 52.85750 | 3.81901 | 21862 ft | 399 kts | 287° |
| 2026-05-05 00:29 | 52.86615 | 3.77526 | 22360 ft | 402 kts | 287° |
| 2026-05-05 00:29 | 52.87485 | 3.73110 | 22853 ft | 404 kts | 287° |
| 2026-05-05 00:29 | 52.88357 | 3.68680 | 23367 ft | 407 kts | 287° |
| 2026-05-05 00:30 | 52.89233 | 3.64216 | 23829 ft | 409 kts | 286° |
| 2026-05-05 00:30 | 52.90117 | 3.59703 | 24249 ft | 412 kts | 286° |
| 2026-05-05 00:30 | 52.91013 | 3.55117 | 24671 ft | 415 kts | 286° |
| 2026-05-05 00:30 | 52.91902 | 3.50554 | 25184 ft | 416 kts | 286° |
| 2026-05-05 00:31 | 52.92795 | 3.45962 | 25608 ft | 420 kts | 286° |
| 2026-05-05 00:31 | 52.93680 | 3.41399 | 26024 ft | 423 kts | 286° |
| 2026-05-05 00:31 | 52.94578 | 3.36759 | 26431 ft | 426 kts | 286° |
| 2026-05-05 00:31 | 52.95483 | 3.32069 | 26851 ft | 429 kts | 285° |
| 2026-05-05 00:32 | 52.96393 | 3.27344 | 27272 ft | 432 kts | 286° |
| 2026-05-05 00:32 | 52.97305 | 3.22591 | 27760 ft | 433 kts | 285° |
| 2026-05-05 00:32 | 52.98209 | 3.17798 | 28158 ft | 436 kts | 285° |
| 2026-05-05 00:32 | 52.99109 | 3.12965 | 28542 ft | 439 kts | 285° |
| 2026-05-05 00:33 | 53.00016 | 3.08108 | 28916 ft | 442 kts | 285° |
| 2026-05-05 00:33 | 53.00934 | 3.03219 | 29306 ft | 446 kts | 285° |
| 2026-05-05 00:33 | 53.01862 | 2.98289 | 29637 ft | 449 kts | 286° |
| 2026-05-05 00:33 | 53.02798 | 2.93334 | 30067 ft | 450 kts | 286° |
| 2026-05-05 00:34 | 53.03735 | 2.88365 | 30470 ft | 450 kts | 286° |
| 2026-05-05 00:34 | 53.04670 | 2.83400 | 30845 ft | 451 kts | 286° |
| 2026-05-05 00:34 | 53.05289 | 2.80104 | 31095 ft | 451 kts | 286° |
| 2026-05-05 00:35 | 53.06563 | 2.68218 | 31869 ft | 450 kts | 269° |
| 2026-05-05 00:35 | 53.06457 | 2.63015 | 32197 ft | 450 kts | 266° |
| 2026-05-05 00:35 | 53.06309 | 2.57811 | 32520 ft | 451 kts | 267° |
| 2026-05-05 00:35 | 53.06215 | 2.52597 | 32829 ft | 452 kts | 269° |
| 2026-05-05 00:36 | 53.06189 | 2.47350 | 33000 ft | 456 kts | 270° |
| 2026-05-05 00:36 | 53.06217 | 2.42070 | 33314 ft | 456 kts | 271° |
| 2026-05-05 00:36 | 53.06274 | 2.36803 | 33600 ft | 457 kts | 271° |
| 2026-05-05 00:36 | 53.06345 | 2.31522 | 33910 ft | 457 kts | 271° |
| 2026-05-05 00:37 | 53.06419 | 2.26229 | 34014 ft | 460 kts | 271° |
| 2026-05-05 00:37 | 53.06559 | 2.15559 | 34033 ft | 461 kts | 271° |
| 2026-05-05 00:38 | 53.06684 | 2.04883 | 34034 ft | 462 kts | 271° |
| 2026-05-05 00:38 | 53.06798 | 1.94148 | 34037 ft | 468 kts | 271° |
| 2026-05-05 00:39 | 53.06903 | 1.83334 | 34036 ft | 468 kts | 271° |
| 2026-05-05 00:39 | 53.06997 | 1.72506 | 34047 ft | 469 kts | 271° |
| 2026-05-05 00:40 | 53.07082 | 1.61637 | 34039 ft | 469 kts | 271° |
| 2026-05-05 00:40 | 53.07157 | 1.50808 | 34031 ft | 469 kts | 271° |
| 2026-05-05 00:41 | 53.07215 | 1.39886 | 34039 ft | 474 kts | 271° |
| 2026-05-05 00:41 | 53.07217 | 1.28916 | 34045 ft | 474 kts | 271° |
| 2026-05-05 00:42 | 53.07235 | 1.17945 | 34047 ft | 474 kts | 271° |
| 2026-05-05 00:42 | 53.07266 | 1.06965 | 34033 ft | 474 kts | 271° |
| 2026-05-05 00:43 | 53.07293 | 0.96003 | 34045 ft | 476 kts | 271° |
| 2026-05-05 00:43 | 53.07309 | 0.84960 | 34031 ft | 477 kts | 271° |
| 2026-05-05 00:44 | 53.07315 | 0.73944 | 34037 ft | 477 kts | 271° |
| 2026-05-05 00:44 | 53.07310 | 0.62915 | 34035 ft | 477 kts | 271° |
| 2026-05-05 00:45 | 53.07294 | 0.51880 | 34044 ft | 477 kts | 271° |
| 2026-05-05 00:45 | 53.07269 | 0.40852 | 34027 ft | 477 kts | 271° |
| 2026-05-05 00:46 | 53.07233 | 0.29814 | 34042 ft | 477 kts | 271° |
| 2026-05-05 00:46 | 53.07187 | 0.18779 | 34046 ft | 477 kts | 270° |
| 2026-05-05 00:47 | 53.07132 | 0.07812 | 34025 ft | 477 kts | 270° |
| 2026-05-05 00:47 | 53.07033 | -0.03287 | 34054 ft | 477 kts | 270° |
| 2026-05-05 00:48 | 53.06910 | -0.14326 | 34039 ft | 477 kts | 270° |
| 2026-05-05 00:48 | 53.06809 | -0.25281 | 34051 ft | 477 kts | 270° |
| 2026-05-05 00:49 | 53.06711 | -0.36378 | 34051 ft | 477 kts | 270° |
| 2026-05-05 00:49 | 53.06605 | -0.47396 | 34055 ft | 477 kts | 270° |
| 2026-05-05 00:50 | 53.06488 | -0.58412 | 34053 ft | 477 kts | 270° |
| 2026-05-05 00:50 | 53.06361 | -0.69438 | 34050 ft | 477 kts | 270° |
| 2026-05-05 00:51 | 53.06224 | -0.80399 | 34051 ft | 477 kts | 270° |
| 2026-05-05 00:51 | 53.06075 | -0.91492 | 34045 ft | 477 kts | 270° |
| 2026-05-05 00:52 | 53.05917 | -1.02515 | 34030 ft | 477 kts | 269° |
| 2026-05-05 00:52 | 53.05748 | -1.13563 | 34046 ft | 477 kts | 269° |
| 2026-05-05 00:53 | 53.05569 | -1.24583 | 34043 ft | 477 kts | 269° |
| 2026-05-05 00:53 | 53.05374 | -1.35604 | 34049 ft | 477 kts | 269° |
| 2026-05-05 00:54 | 53.05122 | -1.46635 | 34051 ft | 477 kts | 269° |
| 2026-05-05 00:54 | 53.04882 | -1.57657 | 34049 ft | 477 kts | 269° |
| 2026-05-05 00:55 | 53.04657 | -1.68686 | 34061 ft | 477 kts | 269° |
| 2026-05-05 00:55 | 53.04428 | -1.79706 | 34045 ft | 477 kts | 269° |
| 2026-05-05 00:56 | 53.04190 | -1.90697 | 34052 ft | 477 kts | 269° |
| 2026-05-05 00:56 | 53.03981 | -1.99931 | 34069 ft | 477 kts | 269° |
| 2026-05-05 00:57 | 53.03679 | -2.12743 | 34065 ft | 477 kts | 269° |
| 2026-05-05 00:57 | 53.03453 | -2.21964 | 34049 ft | 477 kts | 268° |
| 2026-05-05 00:58 | 53.03175 | -2.32960 | 34060 ft | 477 kts | 268° |
| 2026-05-05 00:58 | 53.02885 | -2.43973 | 34053 ft | 477 kts | 268° |
| 2026-05-05 00:59 | 53.02586 | -2.54975 | 34051 ft | 476 kts | 268° |
| 2026-05-05 00:59 | 53.02277 | -2.65955 | 34062 ft | 476 kts | 268° |
| 2026-05-05 01:00 | 53.01940 | -2.76868 | 34057 ft | 476 kts | 268° |
| 2026-05-05 01:00 | 53.01559 | -2.87867 | 34078 ft | 476 kts | 268° |
| 2026-05-05 01:01 | 53.01199 | -2.98839 | 34079 ft | 476 kts | 268° |
| 2026-05-05 01:01 | 53.00847 | -3.09815 | 34066 ft | 476 kts | 268° |
| 2026-05-05 01:02 | 53.00489 | -3.20798 | 34072 ft | 476 kts | 268° |
| 2026-05-05 01:02 | 53.00119 | -3.31780 | 34084 ft | 476 kts | 268° |
| 2026-05-05 01:03 | 52.99740 | -3.42741 | 34079 ft | 476 kts | 268° |
| 2026-05-05 01:03 | 52.99350 | -3.53712 | 34076 ft | 476 kts | 268° |
| 2026-05-05 01:04 | 52.98952 | -3.64600 | 34084 ft | 475 kts | 268° |
| 2026-05-05 01:04 | 52.98333 | -3.81067 | 34085 ft | 475 kts | 267° |
| 2026-05-05 01:05 | 52.97908 | -3.92003 | 34073 ft | 475 kts | 267° |
| 2026-05-05 01:05 | 52.97477 | -4.02870 | 34069 ft | 475 kts | 267° |
| 2026-05-05 01:06 | 52.97016 | -4.13793 | 34067 ft | 474 kts | 266° |
| 2026-05-05 01:06 | 52.96510 | -4.24716 | 34076 ft | 474 kts | 267° |
| 2026-05-05 01:07 | 52.96023 | -4.35619 | 34073 ft | 474 kts | 267° |
| 2026-05-05 01:07 | 52.95547 | -4.46528 | 34071 ft | 474 kts | 267° |
| 2026-05-05 01:08 | 52.95065 | -4.57427 | 34071 ft | 473 kts | 267° |
| 2026-05-05 01:08 | 52.94576 | -4.68237 | 34078 ft | 472 kts | 267° |
| 2026-05-05 01:09 | 52.94073 | -4.79116 | 34081 ft | 472 kts | 267° |
| 2026-05-05 01:09 | 52.93562 | -4.89961 | 34071 ft | 472 kts | 266° |
| 2026-05-05 01:10 | 52.93040 | -5.00825 | 34080 ft | 472 kts | 266° |
| 2026-05-05 01:10 | 52.92509 | -5.11667 | 34074 ft | 471 kts | 266° |
| 2026-05-05 01:11 | 52.91969 | -5.22474 | 34077 ft | 470 kts | 266° |
| 2026-05-05 01:11 | 52.91421 | -5.33261 | 34080 ft | 470 kts | 266° |
| 2026-05-05 01:12 | 52.90863 | -5.44051 | 34078 ft | 470 kts | 266° |
| 2026-05-05 01:12 | 52.90259 | -5.54836 | 34089 ft | 470 kts | 266° |
| 2026-05-05 01:13 | 52.89638 | -5.65610 | 34080 ft | 470 kts | 266° |
| 2026-05-05 01:13 | 52.89037 | -5.76379 | 34087 ft | 470 kts | 266° |
| 2026-05-05 01:14 | 52.88440 | -5.87150 | 34086 ft | 470 kts | 266° |
| 2026-05-05 01:14 | 52.87833 | -5.97937 | 34086 ft | 470 kts | 266° |
| 2026-05-05 01:15 | 52.87217 | -6.08706 | 34086 ft | 469 kts | 266° |
| 2026-05-05 01:15 | 52.86592 | -6.19441 | 34089 ft | 468 kts | 266° |
| 2026-05-05 01:16 | 52.85961 | -6.30107 | 34098 ft | 468 kts | 265° |
| 2026-05-05 01:16 | 52.85317 | -6.40840 | 34098 ft | 468 kts | 265° |
| 2026-05-05 01:17 | 52.84664 | -6.51550 | 34098 ft | 468 kts | 265° |
| 2026-05-05 01:17 | 52.84000 | -6.62277 | 34103 ft | 468 kts | 265° |
| 2026-05-05 01:18 | 52.83328 | -6.72975 | 34102 ft | 468 kts | 265° |
| 2026-05-05 01:18 | 52.82645 | -6.83668 | 34103 ft | 468 kts | 265° |
| 2026-05-05 01:19 | 52.81906 | -6.94351 | 34108 ft | 468 kts | 264° |
| 2026-05-05 01:19 | 52.81171 | -7.05025 | 34105 ft | 468 kts | 265° |
| 2026-05-05 01:20 | 52.80453 | -7.15692 | 34110 ft | 467 kts | 265° |
| 2026-05-05 01:20 | 52.79736 | -7.26343 | 34106 ft | 466 kts | 265° |
| 2026-05-05 01:21 | 52.79013 | -7.36933 | 34115 ft | 466 kts | 265° |
| 2026-05-05 01:21 | 52.78276 | -7.47581 | 34113 ft | 466 kts | 264° |
| 2026-05-05 01:22 | 52.77529 | -7.58225 | 34109 ft | 466 kts | 264° |
| 2026-05-05 01:22 | 52.76774 | -7.68848 | 34119 ft | 465 kts | 264° |
| 2026-05-05 01:23 | 52.76011 | -7.79438 | 34118 ft | 465 kts | 264° |
| 2026-05-05 01:23 | 52.75239 | -7.90029 | 34118 ft | 465 kts | 264° |
| 2026-05-05 01:24 | 52.74456 | -8.00630 | 34121 ft | 465 kts | 264° |
| 2026-05-05 01:24 | 52.73665 | -8.11214 | 34118 ft | 463 kts | 264° |
| 2026-05-05 01:25 | 52.72863 | -8.21727 | 34118 ft | 462 kts | 263° |
| 2026-05-05 01:25 | 52.72006 | -8.32240 | 34123 ft | 462 kts | 263° |
| 2026-05-05 01:26 | 52.71163 | -8.42733 | 34120 ft | 462 kts | 263° |
| 2026-05-05 01:26 | 52.70334 | -8.53231 | 34127 ft | 462 kts | 264° |
| 2026-05-05 01:27 | 52.69507 | -8.63658 | 34127 ft | 459 kts | 263° |
| 2026-05-05 01:27 | 52.68671 | -8.74088 | 34128 ft | 459 kts | 263° |
| 2026-05-05 01:28 | 52.67826 | -8.84508 | 34126 ft | 459 kts | 263° |
| 2026-05-05 01:28 | 52.66966 | -8.94973 | 34129 ft | 463 kts | 263° |
| 2026-05-05 01:29 | 52.66095 | -9.05475 | 34127 ft | 463 kts | 263° |
| 2026-05-05 01:29 | 52.65215 | -9.15956 | 34130 ft | 460 kts | 263° |
| 2026-05-05 01:30 | 52.64330 | -9.26395 | 34130 ft | 460 kts | 263° |
| 2026-05-05 01:30 | 52.63436 | -9.36822 | 34134 ft | 460 kts | 263° |
| 2026-05-05 01:31 | 52.62530 | -9.47269 | 34135 ft | 460 kts | 263° |
| 2026-05-05 01:31 | 52.61611 | -9.57692 | 34131 ft | 459 kts | 262° |
| 2026-05-05 01:32 | 52.60641 | -9.68060 | 34136 ft | 458 kts | 262° |
| 2026-05-05 01:32 | 52.59686 | -9.78421 | 34140 ft | 458 kts | 263° |
| 2026-05-05 01:33 | 52.58743 | -9.88797 | 34141 ft | 458 kts | 263° |
| 2026-05-05 01:33 | 52.57800 | -9.99149 | 34145 ft | 458 kts | 263° |
| 2026-05-05 01:34 | 52.56848 | -10.09492 | 34143 ft | 456 kts | 262° |
| 2026-05-05 01:34 | 52.55891 | -10.19768 | 34141 ft | 455 kts | 262° |
| 2026-05-05 01:35 | 52.54926 | -10.30042 | 34143 ft | 455 kts | 262° |
| 2026-05-05 01:35 | 52.53957 | -10.40258 | 34146 ft | 455 kts | 262° |
| 2026-05-05 01:36 | 52.52972 | -10.50533 | 34146 ft | 455 kts | 262° |
| 2026-05-05 01:36 | 52.51979 | -10.60804 | 34146 ft | 455 kts | 262° |
| 2026-05-05 01:37 | 52.50977 | -10.71066 | 34154 ft | 455 kts | 262° |
| 2026-05-05 01:37 | 52.49968 | -10.81310 | 34154 ft | 455 kts | 262° |
| 2026-05-05 01:38 | 52.48946 | -10.91561 | 34155 ft | 455 kts | 262° |
| 2026-05-05 01:38 | 52.47869 | -11.01785 | 34147 ft | 455 kts | 261° |
| 2026-05-05 01:39 | 52.46804 | -11.11989 | 34157 ft | 453 kts | 262° |
| 2026-05-05 01:39 | 52.45757 | -11.22167 | 34155 ft | 453 kts | 262° |
| 2026-05-05 01:40 | 52.44708 | -11.32351 | 34160 ft | 453 kts | 261° |
| 2026-05-05 01:40 | 52.43830 | -11.40809 | 34157 ft | 453 kts | 261° |
| 2026-05-05 01:41 | 52.42765 | -11.50975 | 34153 ft | 453 kts | 261° |
| 2026-05-05 01:41 | 52.41691 | -11.61142 | 34168 ft | 453 kts | 261° |
| 2026-05-05 01:42 | 52.40608 | -11.71305 | 34167 ft | 453 kts | 261° |
| 2026-05-05 01:42 | 52.39518 | -11.81449 | 34166 ft | 453 kts | 261° |
| 2026-05-05 01:43 | 52.38417 | -11.91602 | 34170 ft | 453 kts | 261° |
| 2026-05-05 01:43 | 52.37315 | -12.01686 | 34165 ft | 453 kts | 261° |
| 2026-05-05 01:44 | 52.36195 | -12.11844 | 34165 ft | 453 kts | 261° |
| 2026-05-05 01:44 | 52.35067 | -12.21999 | 34177 ft | 453 kts | 261° |
| 2026-05-05 01:45 | 52.33897 | -12.32129 | 34172 ft | 453 kts | 261° |
| 2026-05-05 01:45 | 52.32710 | -12.42260 | 34174 ft | 453 kts | 261° |
| 2026-05-05 01:46 | 52.31543 | -12.52385 | 34170 ft | 454 kts | 261° |
| 2026-05-05 01:46 | 52.30375 | -12.62550 | 34175 ft | 454 kts | 261° |
| 2026-05-05 01:47 | 52.29211 | -12.72615 | 34172 ft | 454 kts | 261° |
| 2026-05-05 01:47 | 52.28029 | -12.82755 | 34176 ft | 454 kts | 261° |
| 2026-05-05 01:48 | 52.26837 | -12.92892 | 34176 ft | 454 kts | 261° |
| 2026-05-05 01:48 | 52.25636 | -13.03029 | 34185 ft | 455 kts | 261° |
| 2026-05-05 01:49 | 52.24424 | -13.13185 | 34190 ft | 456 kts | 261° |
| 2026-05-05 01:49 | 52.23205 | -13.23310 | 34191 ft | 456 kts | 261° |
| 2026-05-05 01:50 | 52.21975 | -13.33449 | 34198 ft | 455 kts | 261° |
| 2026-05-05 01:50 | 52.20739 | -13.43572 | 34178 ft | 455 kts | 261° |
| 2026-05-05 01:51 | 52.19491 | -13.53705 | 34202 ft | 456 kts | 261° |
| 2026-05-05 01:51 | 52.18209 | -13.63832 | 34197 ft | 456 kts | 260° |
| 2026-05-05 01:52 | 52.16906 | -13.73884 | 34208 ft | 456 kts | 260° |
| 2026-05-05 01:52 | 52.15617 | -13.83991 | 34207 ft | 456 kts | 260° |
| 2026-05-05 01:53 | 52.14332 | -13.94110 | 34203 ft | 456 kts | 260° |
| 2026-05-05 01:53 | 52.13038 | -14.04242 | 34207 ft | 456 kts | 260° |
| 2026-05-05 01:54 | 52.11739 | -14.14344 | 34214 ft | 456 kts | 260° |
| 2026-05-05 01:54 | 52.10430 | -14.24440 | 34210 ft | 456 kts | 260° |
| 2026-05-05 01:55 | 52.09111 | -14.34544 | 34216 ft | 456 kts | 260° |
| 2026-05-05 01:55 | 52.07784 | -14.44636 | 34215 ft | 455 kts | 259° |
| 2026-05-05 01:56 | 52.06452 | -14.54691 | 34222 ft | 455 kts | 259° |
| 2026-05-05 01:56 | 52.05119 | -14.64685 | 34223 ft | 455 kts | 259° |
| 2026-05-05 01:57 | 52.03769 | -14.74740 | 34224 ft | 455 kts | 259° |
| 2026-05-05 01:57 | 52.02391 | -14.84782 | 34225 ft | 456 kts | 258° |
| 2026-05-05 01:58 | 52.00728 | -14.94687 | 34229 ft | 455 kts | 256° |
| 2026-05-05 01:58 | 51.98965 | -15.04564 | 34230 ft | 455 kts | 256° |
| 2026-05-05 01:59 | 51.97223 | -15.14416 | 34230 ft | 455 kts | 256° |
| 2026-05-05 01:59 | 51.95497 | -15.24227 | 34232 ft | 455 kts | 256° |
| 2026-05-05 02:00 | 51.93761 | -15.34078 | 34235 ft | 454 kts | 256° |
| 2026-05-05 02:00 | 51.92015 | -15.43928 | 34241 ft | 455 kts | 256° |
| 2026-05-05 02:01 | 51.90262 | -15.53758 | 34238 ft | 455 kts | 255° |
| 2026-05-05 02:01 | 51.88499 | -15.63595 | 34244 ft | 454 kts | 255° |
| 2026-05-05 02:02 | 51.86729 | -15.73411 | 34244 ft | 455 kts | 255° |
| 2026-05-05 02:02 | 51.84948 | -15.83237 | 34249 ft | 455 kts | 255° |
| 2026-05-05 02:03 | 51.83160 | -15.93048 | 34250 ft | 455 kts | 255° |
| 2026-05-05 02:03 | 51.81362 | -16.02863 | 34254 ft | 455 kts | 255° |
| 2026-05-05 02:04 | 51.79555 | -16.12669 | 34251 ft | 455 kts | 255° |
| 2026-05-05 02:04 | 51.77702 | -16.22433 | 34252 ft | 455 kts | 255° |
| 2026-05-05 02:05 | 51.75841 | -16.32241 | 34263 ft | 458 kts | 255° |
| 2026-05-05 02:05 | 51.73990 | -16.42081 | 34263 ft | 458 kts | 255° |
| 2026-05-05 02:06 | 51.72152 | -16.51854 | 34263 ft | 458 kts | 255° |
| 2026-05-05 02:06 | 51.70281 | -16.61749 | 34263 ft | 458 kts | 255° |
| 2026-05-05 02:07 | 51.68415 | -16.71567 | 34267 ft | 459 kts | 255° |
| 2026-05-05 02:07 | 51.66546 | -16.81347 | 34270 ft | 460 kts | 255° |
| 2026-05-05 02:08 | 51.64656 | -16.91184 | 34276 ft | 460 kts | 255° |
| 2026-05-05 02:08 | 51.62757 | -17.01017 | 34276 ft | 460 kts | 255° |
| 2026-05-05 02:09 | 51.60851 | -17.10838 | 34281 ft | 460 kts | 255° |
| 2026-05-05 02:09 | 51.58937 | -17.20647 | 34281 ft | 460 kts | 255° |
| 2026-05-05 02:10 | 51.57012 | -17.30463 | 34286 ft | 460 kts | 255° |
| 2026-05-05 02:10 | 51.55076 | -17.40281 | 34290 ft | 460 kts | 255° |
| 2026-05-05 02:11 | 51.53098 | -17.50049 | 34287 ft | 460 kts | 255° |
| 2026-05-05 02:11 | 51.51118 | -17.59810 | 34293 ft | 459 kts | 254° |
| 2026-05-05 02:12 | 51.48184 | -17.74401 | 34297 ft | 457 kts | 255° |
| 2026-05-05 02:13 | 51.46227 | -17.84111 | 34301 ft | 457 kts | 255° |
| 2026-05-05 02:13 | 51.44263 | -17.93811 | 34306 ft | 457 kts | 254° |
| 2026-05-05 02:14 | 51.42289 | -18.03504 | 34296 ft | 457 kts | 254° |
| 2026-05-05 02:14 | 51.40314 | -18.13152 | 34312 ft | 455 kts | 253° |
| 2026-05-05 02:15 | 51.38346 | -18.22722 | 34308 ft | 455 kts | 253° |
| 2026-05-05 02:15 | 51.36362 | -18.32326 | 34317 ft | 455 kts | 253° |
| 2026-05-05 02:16 | 51.34367 | -18.41934 | 34316 ft | 455 kts | 253° |
| 2026-05-05 02:16 | 51.32369 | -18.51509 | 34321 ft | 453 kts | 253° |
| 2026-05-05 02:17 | 51.30370 | -18.61047 | 34318 ft | 452 kts | 253° |
| 2026-05-05 02:17 | 51.28355 | -18.70557 | 34327 ft | 452 kts | 253° |
| 2026-05-05 02:18 | 51.26296 | -18.80054 | 34329 ft | 452 kts | 253° |
| 2026-05-05 02:18 | 51.24256 | -18.89539 | 34328 ft | 452 kts | 253° |
| 2026-05-05 02:19 | 51.22226 | -18.99018 | 34329 ft | 451 kts | 253° |
| 2026-05-05 02:19 | 51.20197 | -19.08478 | 34332 ft | 451 kts | 253° |
| 2026-05-05 02:20 | 51.18172 | -19.17874 | 34340 ft | 451 kts | 253° |
| 2026-05-05 02:20 | 51.16128 | -19.27311 | 34328 ft | 451 kts | 253° |
| 2026-05-05 02:21 | 51.14070 | -19.36768 | 34331 ft | 451 kts | 252° |
| 2026-05-05 02:21 | 51.12005 | -19.46212 | 34333 ft | 451 kts | 252° |
| 2026-05-05 02:22 | 51.09937 | -19.55628 | 34335 ft | 451 kts | 252° |
| 2026-05-05 02:22 | 51.07859 | -19.65046 | 34340 ft | 451 kts | 252° |
| 2026-05-05 02:23 | 51.05773 | -19.74455 | 34337 ft | 451 kts | 252° |
| 2026-05-05 02:23 | 51.03677 | -19.83869 | 34338 ft | 451 kts | 252° |
| 2026-05-05 02:24 | 51.01591 | -19.93186 | 34343 ft | 451 kts | 252° |
| 2026-05-05 02:24 | 50.99591 | -20.02619 | 34351 ft | 450 kts | 256° |
| 2026-05-05 02:25 | 50.98073 | -20.12247 | 34360 ft | 449 kts | 258° |
| 2026-05-05 02:25 | 50.96664 | -20.21908 | 34361 ft | 449 kts | 258° |
| 2026-05-05 02:26 | 50.95235 | -20.31525 | 34363 ft | 448 kts | 258° |
| 2026-05-05 02:26 | 50.93779 | -20.41130 | 34366 ft | 448 kts | 258° |
| 2026-05-05 02:27 | 50.92310 | -20.50720 | 34359 ft | 448 kts | 258° |
| 2026-05-05 02:27 | 50.90835 | -20.60298 | 34360 ft | 448 kts | 258° |
| 2026-05-05 02:28 | 50.89350 | -20.69879 | 34360 ft | 447 kts | 257° |
| 2026-05-05 02:28 | 50.88112 | -20.77825 | 34368 ft | 447 kts | 257° |
| 2026-05-05 02:29 | 50.86616 | -20.87377 | 34371 ft | 447 kts | 257° |
| 2026-05-05 02:29 | 50.85113 | -20.96923 | 34370 ft | 447 kts | 257° |
| 2026-05-05 02:30 | 50.83603 | -21.06450 | 34372 ft | 447 kts | 257° |
| 2026-05-05 02:30 | 50.82083 | -21.15990 | 34376 ft | 446 kts | 257° |
| 2026-05-05 02:31 | 50.80561 | -21.25478 | 34379 ft | 445 kts | 257° |
| 2026-05-05 02:31 | 50.78991 | -21.34947 | 34381 ft | 445 kts | 256° |
| 2026-05-05 02:32 | 50.77427 | -21.44393 | 34384 ft | 445 kts | 257° |
| 2026-05-05 02:32 | 50.75886 | -21.53792 | 34387 ft | 445 kts | 257° |
| 2026-05-05 02:33 | 50.74328 | -21.63290 | 34387 ft | 444 kts | 257° |
| 2026-05-05 02:33 | 50.72783 | -21.72665 | 34390 ft | 444 kts | 256° |
| 2026-05-05 02:34 | 50.71223 | -21.82077 | 34395 ft | 444 kts | 256° |
| 2026-05-05 02:34 | 50.69655 | -21.91488 | 34393 ft | 444 kts | 256° |
| 2026-05-05 02:35 | 50.68077 | -22.00899 | 34388 ft | 443 kts | 256° |
| 2026-05-05 02:35 | 50.66497 | -22.10272 | 34397 ft | 443 kts | 256° |
| 2026-05-05 02:36 | 50.64917 | -22.19597 | 34403 ft | 442 kts | 256° |
| 2026-05-05 02:36 | 50.63320 | -22.28968 | 34401 ft | 442 kts | 256° |
| 2026-05-05 02:37 | 50.61719 | -22.38316 | 34400 ft | 442 kts | 256° |
| 2026-05-05 02:37 | 50.60109 | -22.47664 | 34398 ft | 441 kts | 256° |
| 2026-05-05 02:38 | 50.58480 | -22.56964 | 34405 ft | 441 kts | 255° |
| 2026-05-05 02:38 | 50.56826 | -22.66203 | 34405 ft | 441 kts | 255° |
| 2026-05-05 02:39 | 50.55179 | -22.75508 | 34405 ft | 441 kts | 256° |
| 2026-05-05 02:39 | 50.53544 | -22.84786 | 34403 ft | 441 kts | 256° |
| 2026-05-05 02:40 | 50.51907 | -22.94052 | 34408 ft | 438 kts | 255° |
| 2026-05-05 02:40 | 50.50268 | -23.03276 | 34408 ft | 438 kts | 255° |
| 2026-05-05 02:41 | 50.48622 | -23.12488 | 34414 ft | 438 kts | 255° |
| 2026-05-05 02:41 | 50.46966 | -23.21709 | 34411 ft | 438 kts | 255° |
| 2026-05-05 02:42 | 50.45318 | -23.30844 | 34411 ft | 438 kts | 255° |
| 2026-05-05 02:42 | 50.43654 | -23.40015 | 34414 ft | 436 kts | 255° |
| 2026-05-05 02:43 | 50.41986 | -23.49165 | 34414 ft | 436 kts | 255° |
| 2026-05-05 02:43 | 50.40313 | -23.58296 | 34417 ft | 436 kts | 255° |
| 2026-05-05 02:44 | 50.38628 | -23.67446 | 34419 ft | 436 kts | 255° |
| 2026-05-05 02:44 | 50.36940 | -23.76565 | 34413 ft | 436 kts | 254° |
| 2026-05-05 02:45 | 50.35208 | -23.85683 | 34417 ft | 437 kts | 253° |
| 2026-05-05 02:45 | 50.33467 | -23.94800 | 34417 ft | 437 kts | 254° |
| 2026-05-05 02:46 | 50.31755 | -24.03859 | 34414 ft | 437 kts | 254° |
| 2026-05-05 02:46 | 50.30035 | -24.12964 | 34414 ft | 437 kts | 254° |
| 2026-05-05 02:47 | 50.28308 | -24.22075 | 34417 ft | 437 kts | 254° |
| 2026-05-05 02:47 | 50.26576 | -24.31166 | 34419 ft | 437 kts | 253° |
| 2026-05-05 02:48 | 50.24834 | -24.40263 | 34419 ft | 437 kts | 253° |
| 2026-05-05 02:48 | 50.23086 | -24.49343 | 34419 ft | 437 kts | 253° |
| 2026-05-05 02:49 | 50.21328 | -24.58439 | 34422 ft | 437 kts | 253° |
| 2026-05-05 02:49 | 50.19564 | -24.67518 | 34418 ft | 439 kts | 253° |
| 2026-05-05 02:50 | 50.17785 | -24.76631 | 34421 ft | 439 kts | 253° |
| 2026-05-05 02:50 | 50.16000 | -24.85730 | 34427 ft | 439 kts | 253° |
| 2026-05-05 02:51 | 50.14206 | -24.94837 | 34427 ft | 439 kts | 253° |
| 2026-05-05 02:51 | 50.12410 | -25.03882 | 34425 ft | 440 kts | 253° |
| 2026-05-05 02:52 | 50.10553 | -25.12981 | 34427 ft | 441 kts | 253° |
| 2026-05-05 02:52 | 50.08703 | -25.22104 | 34427 ft | 441 kts | 253° |
| 2026-05-05 02:53 | 50.06862 | -25.31243 | 34429 ft | 442 kts | 253° |
| 2026-05-05 02:53 | 50.05021 | -25.40368 | 34427 ft | 442 kts | 253° |
| 2026-05-05 02:54 | 50.03175 | -25.49477 | 34426 ft | 442 kts | 253° |
| 2026-05-05 02:54 | 50.01317 | -25.58602 | 34427 ft | 442 kts | 253° |
| 2026-05-05 02:55 | 49.99463 | -25.67665 | 34427 ft | 442 kts | 253° |
| 2026-05-05 02:55 | 49.97590 | -25.76780 | 34427 ft | 443 kts | 253° |
| 2026-05-05 02:56 | 49.95709 | -25.85889 | 34431 ft | 443 kts | 253° |
| 2026-05-05 02:56 | 49.93824 | -25.94977 | 34428 ft | 442 kts | 254° |
| 2026-05-05 02:57 | 49.91931 | -26.04063 | 34434 ft | 442 kts | 254° |
| 2026-05-05 02:57 | 49.90030 | -26.13143 | 34434 ft | 442 kts | 254° |
| 2026-05-05 02:58 | 49.88124 | -26.22209 | 34434 ft | 442 kts | 253° |
| 2026-05-05 02:58 | 49.86185 | -26.31265 | 34429 ft | 442 kts | 255° |
| 2026-05-05 02:59 | 49.84227 | -26.40296 | 34435 ft | 442 kts | 255° |
| 2026-05-05 02:59 | 49.82302 | -26.49266 | 34435 ft | 441 kts | 255° |
| 2026-05-05 03:00 | 49.80368 | -26.58294 | 34435 ft | 441 kts | 255° |
| 2026-05-05 03:00 | 49.78433 | -26.67300 | 34438 ft | 441 kts | 255° |
| 2026-05-05 03:01 | 49.76490 | -26.76288 | 34434 ft | 440 kts | 256° |
| 2026-05-05 03:01 | 49.74546 | -26.85253 | 34438 ft | 439 kts | 256° |
| 2026-05-05 03:02 | 49.72596 | -26.94204 | 34436 ft | 439 kts | 256° |
| 2026-05-05 03:02 | 49.70652 | -27.03090 | 34433 ft | 439 kts | 256° |
| 2026-05-05 03:03 | 49.68691 | -27.12016 | 34406 ft | 439 kts | 257° |
| 2026-05-05 03:03 | 49.66728 | -27.20899 | 34426 ft | 436 kts | 258° |
| 2026-05-05 03:04 | 49.64755 | -27.29804 | 34423 ft | 435 kts | 258° |
| 2026-05-05 03:04 | 49.62805 | -27.38571 | 34425 ft | 435 kts | 258° |
| 2026-05-05 03:05 | 49.60831 | -27.47399 | 34437 ft | 435 kts | 257° |
| 2026-05-05 03:05 | 49.58814 | -27.56186 | 34422 ft | 433 kts | 259° |
| 2026-05-05 03:06 | 49.56815 | -27.64910 | 34432 ft | 431 kts | 259° |
| 2026-05-05 03:06 | 49.54838 | -27.73617 | 34430 ft | 430 kts | 259° |
| 2026-05-05 03:07 | 49.52863 | -27.82309 | 34432 ft | 430 kts | 259° |
| 2026-05-05 03:07 | 49.50879 | -27.91007 | 34433 ft | 430 kts | 259° |
| 2026-05-05 03:08 | 49.48891 | -27.99676 | 34423 ft | 428 kts | 260° |
| 2026-05-05 03:08 | 49.46909 | -28.08286 | 34431 ft | 427 kts | 260° |
| 2026-05-05 03:09 | 49.44926 | -28.16877 | 34431 ft | 427 kts | 260° |
| 2026-05-05 03:09 | 49.42933 | -28.25472 | 34435 ft | 427 kts | 260° |
| 2026-05-05 03:10 | 49.40931 | -28.34071 | 34426 ft | 427 kts | 260° |
| 2026-05-05 03:10 | 49.38927 | -28.42643 | 34430 ft | 427 kts | 260° |
| 2026-05-05 03:11 | 49.36916 | -28.51206 | 34431 ft | 427 kts | 260° |
| 2026-05-05 03:11 | 49.34910 | -28.59719 | 34431 ft | 427 kts | 260° |
| 2026-05-05 03:12 | 49.32881 | -28.68285 | 34429 ft | 427 kts | 259° |
| 2026-05-05 03:12 | 49.30806 | -28.76837 | 34402 ft | 428 kts | 259° |
| 2026-05-05 03:13 | 49.28733 | -28.85413 | 34426 ft | 429 kts | 260° |
| 2026-05-05 03:13 | 49.26670 | -28.93993 | 34428 ft | 429 kts | 260° |
| 2026-05-05 03:14 | 49.24611 | -29.02558 | 34421 ft | 429 kts | 260° |
| 2026-05-05 03:14 | 49.22539 | -29.11143 | 34423 ft | 429 kts | 260° |
| 2026-05-05 03:15 | 49.20464 | -29.19722 | 34422 ft | 432 kts | 259° |
| 2026-05-05 03:15 | 49.18364 | -29.28356 | 34431 ft | 433 kts | 259° |
| 2026-05-05 03:16 | 49.16259 | -29.36966 | 34426 ft | 432 kts | 259° |
| 2026-05-05 03:16 | 49.14166 | -29.45502 | 34427 ft | 432 kts | 259° |
| 2026-05-05 03:17 | 49.12053 | -29.54090 | 34385 ft | 433 kts | 258° |
| 2026-05-05 03:17 | 49.09922 | -29.62723 | 34426 ft | 435 kts | 258° |
| 2026-05-05 03:18 | 49.07780 | -29.71360 | 34424 ft | 436 kts | 258° |
| 2026-05-05 03:18 | 49.05628 | -29.79999 | 34417 ft | 436 kts | 258° |
| 2026-05-05 03:19 | 49.02246 | -29.91265 | 34421 ft | 448 kts | 249° |
| 2026-05-05 03:19 | 48.98342 | -30.00630 | 34424 ft | 451 kts | 246° |
| 2026-05-05 03:20 | 48.95492 | -30.07352 | 34422 ft | 451 kts | 246° |
| 2026-05-05 03:20 | 48.92131 | -30.15406 | 34422 ft | 451 kts | 246° |
| 2026-05-05 03:21 | 48.88806 | -30.23429 | 34425 ft | 451 kts | 246° |
| 2026-05-05 03:21 | 48.85460 | -30.31493 | 34417 ft | 451 kts | 246° |
| 2026-05-05 03:22 | 48.82110 | -30.39541 | 34418 ft | 451 kts | 246° |
| 2026-05-05 03:22 | 48.78753 | -30.47578 | 34422 ft | 451 kts | 246° |
| 2026-05-05 03:23 | 48.75391 | -30.55604 | 34421 ft | 451 kts | 246° |
| 2026-05-05 03:23 | 48.72024 | -30.63616 | 34407 ft | 450 kts | 245° |
| 2026-05-05 03:24 | 48.68659 | -30.71598 | 34418 ft | 449 kts | 245° |
| 2026-05-05 03:24 | 48.65294 | -30.79561 | 34421 ft | 449 kts | 245° |
| 2026-05-05 03:25 | 48.61925 | -30.87507 | 34417 ft | 449 kts | 245° |
| 2026-05-05 03:25 | 48.58544 | -30.95432 | 34398 ft | 448 kts | 244° |
| 2026-05-05 03:26 | 48.55166 | -31.03244 | 34416 ft | 446 kts | 244° |
| 2026-05-05 03:26 | 48.51787 | -31.11094 | 34416 ft | 446 kts | 244° |
| 2026-05-05 03:27 | 48.48418 | -31.18942 | 34411 ft | 446 kts | 244° |
| 2026-05-05 03:27 | 48.45045 | -31.26783 | 34383 ft | 446 kts | 244° |
| 2026-05-05 03:28 | 48.41672 | -31.34603 | 34413 ft | 445 kts | 243° |
| 2026-05-05 03:28 | 48.38296 | -31.42402 | 34416 ft | 444 kts | 243° |
| 2026-05-05 03:29 | 48.34916 | -31.50191 | 34412 ft | 444 kts | 243° |
| 2026-05-05 03:29 | 48.31530 | -31.57969 | 34411 ft | 444 kts | 243° |
| 2026-05-05 03:30 | 48.28163 | -31.65685 | 34408 ft | 444 kts | 242° |
| 2026-05-05 03:30 | 48.24768 | -31.73438 | 34410 ft | 444 kts | 242° |
| 2026-05-05 03:31 | 48.21368 | -31.81183 | 34410 ft | 444 kts | 242° |
| 2026-05-05 03:31 | 48.17965 | -31.88912 | 34409 ft | 444 kts | 242° |
| 2026-05-05 03:32 | 48.14558 | -31.96628 | 34406 ft | 444 kts | 242° |
| 2026-05-05 03:32 | 48.11110 | -32.04331 | 34403 ft | 446 kts | 242° |
| 2026-05-05 03:33 | 48.07657 | -32.12034 | 34403 ft | 445 kts | 242° |
| 2026-05-05 03:33 | 48.04215 | -32.19741 | 34404 ft | 445 kts | 242° |
| 2026-05-05 03:34 | 48.00779 | -32.27436 | 34391 ft | 446 kts | 241° |
| 2026-05-05 03:34 | 47.97352 | -32.35090 | 34399 ft | 446 kts | 241° |
| 2026-05-05 03:35 | 47.93894 | -32.42788 | 34394 ft | 446 kts | 241° |
| 2026-05-05 03:35 | 47.90436 | -32.50465 | 34390 ft | 446 kts | 241° |
| 2026-05-05 03:36 | 47.86966 | -32.58149 | 34381 ft | 446 kts | 240° |
| 2026-05-05 03:36 | 47.83492 | -32.65819 | 34392 ft | 447 kts | 240° |
| 2026-05-05 03:37 | 47.80015 | -32.73470 | 34391 ft | 447 kts | 240° |
| 2026-05-05 03:37 | 47.76529 | -32.81124 | 34387 ft | 447 kts | 240° |
| 2026-05-05 03:38 | 47.73060 | -32.88717 | 34379 ft | 447 kts | 240° |
| 2026-05-05 03:38 | 47.69572 | -32.96331 | 34384 ft | 445 kts | 240° |
| 2026-05-05 03:39 | 47.66075 | -33.03907 | 34382 ft | 445 kts | 239° |
| 2026-05-05 03:39 | 47.62553 | -33.11462 | 34382 ft | 445 kts | 239° |
| 2026-05-05 03:40 | 47.59038 | -33.19035 | 34365 ft | 445 kts | 239° |
| 2026-05-05 03:40 | 47.55544 | -33.26571 | 34374 ft | 444 kts | 239° |
| 2026-05-05 03:41 | 47.52048 | -33.34101 | 34374 ft | 444 kts | 239° |
| 2026-05-05 03:41 | 47.48550 | -33.41613 | 34375 ft | 444 kts | 239° |
| 2026-05-05 03:42 | 47.45043 | -33.49123 | 34377 ft | 444 kts | 239° |
| 2026-05-05 03:42 | 47.41540 | -33.56602 | 34383 ft | 441 kts | 238° |
| 2026-05-05 03:43 | 47.38048 | -33.64039 | 34378 ft | 441 kts | 238° |
| 2026-05-05 03:43 | 47.34551 | -33.71464 | 34362 ft | 441 kts | 238° |
| 2026-05-05 03:44 | 47.31047 | -33.78887 | 34356 ft | 441 kts | 238° |
| 2026-05-05 03:44 | 47.27545 | -33.86285 | 34364 ft | 440 kts | 238° |
| 2026-05-05 03:45 | 47.24036 | -33.93677 | 34364 ft | 440 kts | 238° |
| 2026-05-05 03:45 | 47.20546 | -34.01008 | 34360 ft | 440 kts | 238° |
| 2026-05-05 03:46 | 47.17006 | -34.08346 | 34359 ft | 440 kts | 238° |
| 2026-05-05 03:46 | 47.13465 | -34.15684 | 34355 ft | 439 kts | 237° |
| 2026-05-05 03:47 | 47.09945 | -34.23004 | 34360 ft | 439 kts | 237° |
| 2026-05-05 03:47 | 47.06423 | -34.30325 | 34361 ft | 439 kts | 237° |
| 2026-05-05 03:48 | 47.02902 | -34.37626 | 34351 ft | 439 kts | 237° |
| 2026-05-05 03:48 | 46.99373 | -34.44924 | 34351 ft | 438 kts | 237° |
| 2026-05-05 03:49 | 46.95844 | -34.52202 | 34347 ft | 438 kts | 237° |
| 2026-05-05 03:49 | 46.92320 | -34.59450 | 34349 ft | 438 kts | 237° |
| 2026-05-05 03:50 | 46.88780 | -34.66712 | 34348 ft | 438 kts | 237° |
| 2026-05-05 03:50 | 46.85245 | -34.73946 | 34341 ft | 437 kts | 236° |
| 2026-05-05 03:51 | 46.81711 | -34.81157 | 34344 ft | 436 kts | 236° |
| 2026-05-05 03:51 | 46.78199 | -34.88305 | 34347 ft | 436 kts | 236° |
| 2026-05-05 03:52 | 46.74660 | -34.95492 | 34345 ft | 436 kts | 236° |
| 2026-05-05 03:52 | 46.71104 | -35.02674 | 34343 ft | 436 kts | 236° |
| 2026-05-05 03:53 | 46.67531 | -35.09806 | 34338 ft | 436 kts | 236° |
| 2026-05-05 03:53 | 46.63958 | -35.16962 | 34340 ft | 436 kts | 236° |
| 2026-05-05 03:54 | 46.60420 | -35.24064 | 34337 ft | 436 kts | 236° |
| 2026-05-05 03:54 | 46.56854 | -35.31211 | 34331 ft | 434 kts | 235° |
| 2026-05-05 03:55 | 46.53312 | -35.38293 | 34333 ft | 432 kts | 235° |
| 2026-05-05 03:55 | 46.49770 | -35.45357 | 34321 ft | 432 kts | 235° |
| 2026-05-05 03:56 | 46.46224 | -35.52409 | 34311 ft | 433 kts | 236° |
| 2026-05-05 03:56 | 46.42685 | -35.59430 | 34328 ft | 433 kts | 235° |
| 2026-05-05 03:57 | 46.39138 | -35.66449 | 34322 ft | 431 kts | 235° |
| 2026-05-05 03:57 | 46.35599 | -35.73435 | 34322 ft | 430 kts | 235° |
| 2026-05-05 03:58 | 46.32052 | -35.80420 | 34316 ft | 430 kts | 235° |
| 2026-05-05 03:58 | 46.28508 | -35.87381 | 34312 ft | 430 kts | 235° |
| 2026-05-05 03:59 | 46.24969 | -35.94315 | 34316 ft | 428 kts | 235° |
| 2026-05-05 03:59 | 46.21420 | -36.01221 | 34314 ft | 428 kts | 234° |
| 2026-05-05 04:00 | 46.17852 | -36.08101 | 34316 ft | 427 kts | 234° |
| 2026-05-05 04:00 | 46.14298 | -36.14980 | 34304 ft | 427 kts | 234° |
| 2026-05-05 04:01 | 46.10748 | -36.21863 | 34311 ft | 428 kts | 234° |
| 2026-05-05 04:01 | 46.07187 | -36.28755 | 34311 ft | 429 kts | 234° |
| 2026-05-05 04:02 | 46.03645 | -36.35593 | 34306 ft | 429 kts | 234° |
| 2026-05-05 04:02 | 46.00080 | -36.42459 | 34311 ft | 429 kts | 234° |
| 2026-05-05 04:03 | 45.96509 | -36.49319 | 34306 ft | 427 kts | 234° |
| 2026-05-05 04:03 | 45.92944 | -36.56151 | 34301 ft | 427 kts | 234° |
| 2026-05-05 04:04 | 45.89379 | -36.62965 | 34301 ft | 427 kts | 234° |
| 2026-05-05 04:04 | 45.85810 | -36.69771 | 34300 ft | 427 kts | 234° |
| 2026-05-05 04:05 | 45.82242 | -36.76556 | 34291 ft | 425 kts | 236° |
| 2026-05-05 04:05 | 45.78689 | -36.83302 | 34300 ft | 424 kts | 236° |
| 2026-05-05 04:06 | 45.75127 | -36.90047 | 34296 ft | 424 kts | 236° |
| 2026-05-05 04:06 | 45.72158 | -36.95640 | 34295 ft | 424 kts | 235° |
| 2026-05-05 04:07 | 45.68561 | -37.02342 | 34291 ft | 424 kts | 237° |
| 2026-05-05 04:07 | 45.64981 | -37.09039 | 34290 ft | 424 kts | 237° |
| 2026-05-05 04:08 | 45.60820 | -37.16836 | 34284 ft | 425 kts | 237° |
| 2026-05-05 04:08 | 45.57822 | -37.22448 | 34290 ft | 425 kts | 237° |
| 2026-05-05 04:09 | 45.54236 | -37.29137 | 34288 ft | 422 kts | 239° |
| 2026-05-05 04:09 | 45.50672 | -37.35777 | 34287 ft | 422 kts | 239° |
| 2026-05-05 04:10 | 45.47126 | -37.42370 | 34279 ft | 422 kts | 239° |
| 2026-05-05 04:10 | 45.43552 | -37.48996 | 34287 ft | 421 kts | 239° |
| 2026-05-05 04:11 | 45.39995 | -37.55568 | 34283 ft | 415 kts | 240° |
| 2026-05-05 04:11 | 45.36482 | -37.62048 | 34284 ft | 413 kts | 240° |
| 2026-05-05 04:12 | 45.32976 | -37.68511 | 34284 ft | 412 kts | 240° |
| 2026-05-05 04:12 | 45.29470 | -37.74956 | 34282 ft | 413 kts | 240° |
| 2026-05-05 04:13 | 45.25953 | -37.81402 | 34279 ft | 413 kts | 240° |
| 2026-05-05 04:13 | 45.22431 | -37.87841 | 34279 ft | 413 kts | 240° |
| 2026-05-05 04:14 | 45.18885 | -37.94245 | 34273 ft | 413 kts | 240° |
| 2026-05-05 04:14 | 45.15361 | -38.00613 | 34273 ft | 413 kts | 240° |
| 2026-05-05 04:15 | 45.11828 | -38.07014 | 34274 ft | 410 kts | 240° |
| 2026-05-05 04:15 | 45.08335 | -38.13339 | 34276 ft | 407 kts | 240° |
| 2026-05-05 04:16 | 45.04840 | -38.19661 | 34272 ft | 407 kts | 240° |
| 2026-05-05 04:16 | 45.01345 | -38.25971 | 34271 ft | 407 kts | 240° |
| 2026-05-05 04:17 | 44.97846 | -38.32266 | 34261 ft | 405 kts | 240° |
| 2026-05-05 04:17 | 44.94381 | -38.38485 | 34264 ft | 402 kts | 240° |
| 2026-05-05 04:18 | 44.90938 | -38.44659 | 34265 ft | 402 kts | 240° |
| 2026-05-05 04:18 | 44.87474 | -38.50857 | 34265 ft | 402 kts | 240° |
| 2026-05-05 04:19 | 44.84007 | -38.57046 | 34259 ft | 401 kts | 240° |
| 2026-05-05 04:19 | 44.80573 | -38.63153 | 34256 ft | 397 kts | 240° |
| 2026-05-05 04:20 | 44.77142 | -38.69252 | 34252 ft | 399 kts | 241° |
| 2026-05-05 04:20 | 44.73685 | -38.75393 | 34257 ft | 401 kts | 241° |
| 2026-05-05 04:21 | 44.70209 | -38.81531 | 34254 ft | 402 kts | 240° |
| 2026-05-05 04:21 | 44.66718 | -38.87619 | 34249 ft | 398 kts | 240° |
| 2026-05-05 04:22 | 44.63261 | -38.93672 | 34249 ft | 397 kts | 240° |
| 2026-05-05 04:22 | 44.59819 | -38.99718 | 34245 ft | 397 kts | 240° |
| 2026-05-05 04:23 | 44.56371 | -39.05766 | 34248 ft | 397 kts | 240° |
| 2026-05-05 04:23 | 44.52957 | -39.11738 | 34245 ft | 393 kts | 240° |
| 2026-05-05 04:24 | 44.49542 | -39.17704 | 34243 ft | 392 kts | 240° |
| 2026-05-05 04:25 | 44.44411 | -39.26647 | 34258 ft | 392 kts | 240° |
| 2026-05-05 04:25 | 44.40991 | -39.32592 | 34247 ft | 392 kts | 240° |
| 2026-05-05 04:26 | 44.37560 | -39.38543 | 34250 ft | 392 kts | 240° |
| 2026-05-05 04:26 | 44.34127 | -39.44481 | 34250 ft | 392 kts | 240° |
| 2026-05-05 04:27 | 44.30697 | -39.50406 | 34244 ft | 393 kts | 240° |
| 2026-05-05 04:27 | 44.27258 | -39.56332 | 34245 ft | 393 kts | 240° |
| 2026-05-05 04:28 | 44.23817 | -39.62249 | 34238 ft | 392 kts | 239° |
| 2026-05-05 04:28 | 44.20397 | -39.68119 | 34234 ft | 392 kts | 239° |
| 2026-05-05 04:29 | 44.16940 | -39.74010 | 34237 ft | 393 kts | 239° |
| 2026-05-05 04:29 | 44.13099 | -39.79556 | 34238 ft | 402 kts | 232° |
| 2026-05-05 04:30 | 44.08886 | -39.84707 | 34237 ft | 404 kts | 230° |
| 2026-05-05 04:30 | 44.04646 | -39.89833 | 34240 ft | 403 kts | 231° |
| 2026-05-05 04:31 | 44.00419 | -39.94992 | 34229 ft | 406 kts | 231° |
| 2026-05-05 04:31 | 43.96202 | -40.00155 | 34230 ft | 407 kts | 231° |
| 2026-05-05 04:32 | 43.91962 | -40.05337 | 34232 ft | 406 kts | 231° |
| 2026-05-05 04:32 | 43.87720 | -40.10514 | 34232 ft | 406 kts | 231° |
| 2026-05-05 04:33 | 43.83476 | -40.15684 | 34232 ft | 406 kts | 231° |
| 2026-05-05 04:33 | 43.79228 | -40.20848 | 34234 ft | 406 kts | 231° |
| 2026-05-05 04:34 | 43.74984 | -40.25998 | 34227 ft | 406 kts | 231° |
| 2026-05-05 04:34 | 43.70736 | -40.31142 | 34236 ft | 406 kts | 231° |
| 2026-05-05 04:35 | 43.66481 | -40.36285 | 34229 ft | 406 kts | 231° |
| 2026-05-05 04:35 | 43.62229 | -40.41413 | 34219 ft | 406 kts | 231° |
| 2026-05-05 04:36 | 43.57981 | -40.46526 | 34226 ft | 405 kts | 231° |
| 2026-05-05 04:36 | 43.53727 | -40.51637 | 34228 ft | 405 kts | 230° |
| 2026-05-05 04:37 | 43.49464 | -40.56715 | 34227 ft | 409 kts | 230° |
| 2026-05-05 04:37 | 43.45131 | -40.61869 | 34237 ft | 409 kts | 230° |
| 2026-05-05 04:38 | 43.40832 | -40.66990 | 34233 ft | 408 kts | 230° |
| 2026-05-05 04:38 | 43.36567 | -40.72073 | 34229 ft | 408 kts | 230° |
| 2026-05-05 04:39 | 43.32274 | -40.77182 | 34217 ft | 408 kts | 230° |
| 2026-05-05 04:39 | 43.27983 | -40.82278 | 34223 ft | 408 kts | 230° |
| 2026-05-05 04:40 | 43.23690 | -40.87365 | 34217 ft | 407 kts | 230° |
| 2026-05-05 04:40 | 43.19396 | -40.92444 | 34214 ft | 407 kts | 230° |
| 2026-05-05 04:41 | 43.15106 | -40.97509 | 34218 ft | 407 kts | 230° |
| 2026-05-05 04:41 | 43.10804 | -41.02578 | 34215 ft | 408 kts | 229° |
| 2026-05-05 04:42 | 43.06501 | -41.07639 | 34212 ft | 408 kts | 229° |
| 2026-05-05 04:42 | 43.02188 | -41.12701 | 34211 ft | 408 kts | 229° |
| 2026-05-05 04:43 | 42.97871 | -41.17758 | 34215 ft | 408 kts | 229° |
| 2026-05-05 04:43 | 42.93565 | -41.22793 | 34213 ft | 408 kts | 229° |
| 2026-05-05 04:44 | 42.89256 | -41.27813 | 34213 ft | 408 kts | 229° |
| 2026-05-05 04:44 | 42.84927 | -41.32814 | 34216 ft | 407 kts | 229° |
| 2026-05-05 04:45 | 42.80613 | -41.37808 | 34213 ft | 406 kts | 229° |
| 2026-05-05 04:45 | 42.76319 | -41.42783 | 34213 ft | 404 kts | 229° |
| 2026-05-05 04:46 | 42.72056 | -41.47720 | 34212 ft | 404 kts | 229° |
| 2026-05-05 04:46 | 42.67769 | -41.52678 | 34209 ft | 404 kts | 229° |
| 2026-05-05 04:47 | 42.63486 | -41.57621 | 34208 ft | 404 kts | 228° |
| 2026-05-05 04:47 | 42.59197 | -41.62560 | 34211 ft | 404 kts | 228° |
| 2026-05-05 04:48 | 42.54895 | -41.67507 | 34209 ft | 407 kts | 228° |
| 2026-05-05 04:48 | 42.50569 | -41.72472 | 34216 ft | 408 kts | 228° |
| 2026-05-05 04:49 | 42.46232 | -41.77437 | 34217 ft | 408 kts | 228° |
| 2026-05-05 04:49 | 42.41900 | -41.82387 | 34216 ft | 408 kts | 228° |
| 2026-05-05 04:50 | 42.37589 | -41.87304 | 34216 ft | 408 kts | 228° |
| 2026-05-05 04:50 | 42.33250 | -41.92246 | 34230 ft | 408 kts | 227° |
| 2026-05-05 04:51 | 42.28882 | -41.97214 | 34217 ft | 412 kts | 227° |
| 2026-05-05 04:51 | 42.24483 | -42.02185 | 34216 ft | 412 kts | 227° |
| 2026-05-05 04:52 | 42.20072 | -42.07141 | 34220 ft | 412 kts | 227° |
| 2026-05-05 04:52 | 42.15674 | -42.12096 | 34220 ft | 412 kts | 227° |
| 2026-05-05 04:53 | 42.11273 | -42.17057 | 34219 ft | 412 kts | 227° |
| 2026-05-05 04:53 | 42.06853 | -42.22037 | 34221 ft | 416 kts | 227° |
| 2026-05-05 04:54 | 42.02408 | -42.27033 | 34220 ft | 417 kts | 227° |
| 2026-05-05 04:54 | 41.97955 | -42.32025 | 34221 ft | 416 kts | 227° |
| 2026-05-05 04:55 | 41.93537 | -42.36970 | 34222 ft | 416 kts | 226° |
| 2026-05-05 04:55 | 41.89064 | -42.41970 | 34225 ft | 416 kts | 226° |
| 2026-05-05 04:56 | 41.84643 | -42.46900 | 34224 ft | 415 kts | 226° |
| 2026-05-05 04:56 | 41.80211 | -42.51832 | 34222 ft | 414 kts | 226° |
| 2026-05-05 04:57 | 41.75777 | -42.56761 | 34220 ft | 414 kts | 226° |
| 2026-05-05 04:57 | 41.72090 | -42.60852 | 34222 ft | 414 kts | 226° |
| 2026-05-05 04:58 | 41.67616 | -42.65808 | 34224 ft | 415 kts | 226° |
| 2026-05-05 04:58 | 41.63191 | -42.70698 | 34211 ft | 416 kts | 226° |
| 2026-05-05 04:59 | 41.58670 | -42.75658 | 34222 ft | 422 kts | 226° |
| 2026-05-05 04:59 | 41.54121 | -42.80638 | 34227 ft | 423 kts | 226° |
| 2026-05-05 05:00 | 41.49568 | -42.85633 | 34222 ft | 424 kts | 226° |
| 2026-05-05 05:00 | 41.45013 | -42.90627 | 34224 ft | 424 kts | 226° |
| 2026-05-05 05:01 | 41.40456 | -42.95617 | 34224 ft | 424 kts | 226° |
| 2026-05-05 05:01 | 41.35890 | -43.00610 | 34222 ft | 427 kts | 225° |
| 2026-05-05 05:02 | 41.31284 | -43.05636 | 34222 ft | 428 kts | 225° |
| 2026-05-05 05:02 | 41.26708 | -43.10617 | 34222 ft | 428 kts | 225° |
| 2026-05-05 05:03 | 41.22099 | -43.15625 | 34223 ft | 427 kts | 225° |
| 2026-05-05 05:03 | 41.17485 | -43.20629 | 34198 ft | 427 kts | 225° |
| 2026-05-05 05:04 | 41.12861 | -43.25637 | 34226 ft | 430 kts | 225° |
| 2026-05-05 05:04 | 41.08230 | -43.30641 | 34213 ft | 430 kts | 225° |
| 2026-05-05 05:05 | 41.03603 | -43.35631 | 34223 ft | 429 kts | 225° |
| 2026-05-05 05:05 | 40.98994 | -43.40593 | 34221 ft | 429 kts | 225° |
| 2026-05-05 05:06 | 40.94315 | -43.45589 | 34228 ft | 429 kts | 225° |
| 2026-05-05 05:06 | 40.89694 | -43.50520 | 34228 ft | 430 kts | 225° |
| 2026-05-05 05:07 | 40.85042 | -43.55492 | 34228 ft | 430 kts | 225° |
| 2026-05-05 05:07 | 40.80398 | -43.60454 | 34227 ft | 430 kts | 225° |
| 2026-05-05 05:08 | 40.75744 | -43.65417 | 34224 ft | 430 kts | 225° |
| 2026-05-05 05:08 | 40.71087 | -43.70376 | 34200 ft | 431 kts | 225° |
| 2026-05-05 05:09 | 40.66412 | -43.75345 | 34224 ft | 432 kts | 224° |
| 2026-05-05 05:09 | 40.61723 | -43.80318 | 34226 ft | 433 kts | 224° |
| 2026-05-05 05:10 | 40.57037 | -43.85277 | 34227 ft | 433 kts | 224° |
| 2026-05-05 05:10 | 40.52373 | -43.90205 | 34230 ft | 433 kts | 224° |
| 2026-05-05 05:11 | 40.47677 | -43.95159 | 34228 ft | 433 kts | 224° |
| 2026-05-05 05:11 | 40.42979 | -44.00104 | 34232 ft | 433 kts | 224° |
| 2026-05-05 05:12 | 40.38284 | -44.05038 | 34231 ft | 433 kts | 224° |
| 2026-05-05 05:12 | 40.33579 | -44.09973 | 34238 ft | 433 kts | 224° |
| 2026-05-05 05:13 | 40.28868 | -44.14872 | 34230 ft | 432 kts | 224° |
| 2026-05-05 05:13 | 40.24150 | -44.19781 | 34234 ft | 434 kts | 224° |
| 2026-05-05 05:14 | 40.19428 | -44.24700 | 34235 ft | 434 kts | 224° |
| 2026-05-05 05:14 | 40.14698 | -44.29623 | 34232 ft | 434 kts | 224° |
| 2026-05-05 05:15 | 40.09966 | -44.34541 | 34241 ft | 434 kts | 224° |
| 2026-05-05 05:15 | 40.05238 | -44.39446 | 34241 ft | 434 kts | 224° |
| 2026-05-05 05:16 | 40.00505 | -44.44346 | 34238 ft | 433 kts | 224° |
| 2026-05-05 05:16 | 39.95786 | -44.49223 | 34241 ft | 432 kts | 224° |
| 2026-05-05 05:17 | 39.91061 | -44.54098 | 34244 ft | 432 kts | 224° |
| 2026-05-05 05:17 | 39.86381 | -44.58918 | 34244 ft | 431 kts | 224° |
| 2026-05-05 05:18 | 39.81677 | -44.63753 | 34228 ft | 431 kts | 224° |
| 2026-05-05 05:18 | 39.76955 | -44.68601 | 34240 ft | 433 kts | 224° |
| 2026-05-05 05:19 | 39.72230 | -44.73441 | 34244 ft | 432 kts | 224° |
| 2026-05-05 05:19 | 39.67519 | -44.78253 | 34242 ft | 431 kts | 224° |
| 2026-05-05 05:20 | 39.62786 | -44.83050 | 34241 ft | 431 kts | 224° |
| 2026-05-05 05:20 | 39.58057 | -44.87850 | 34235 ft | 431 kts | 224° |
| 2026-05-05 05:21 | 39.53336 | -44.92647 | 34243 ft | 432 kts | 224° |
| 2026-05-05 05:21 | 39.48607 | -44.97448 | 34243 ft | 432 kts | 224° |
| 2026-05-05 05:22 | 39.43882 | -45.02237 | 34243 ft | 432 kts | 224° |
| 2026-05-05 05:22 | 39.39152 | -45.07021 | 34233 ft | 431 kts | 224° |
| 2026-05-05 05:23 | 39.34439 | -45.11781 | 34245 ft | 432 kts | 224° |
| 2026-05-05 05:23 | 39.29693 | -45.16564 | 34244 ft | 432 kts | 224° |
| 2026-05-05 05:24 | 39.24946 | -45.21340 | 34245 ft | 432 kts | 224° |
| 2026-05-05 05:24 | 39.20196 | -45.26111 | 34246 ft | 432 kts | 224° |
| 2026-05-05 05:25 | 39.15444 | -45.30875 | 34249 ft | 432 kts | 224° |
| 2026-05-05 05:25 | 39.10691 | -45.35632 | 34249 ft | 432 kts | 224° |
| 2026-05-05 05:26 | 39.05936 | -45.40384 | 34246 ft | 432 kts | 224° |
| 2026-05-05 05:26 | 39.01183 | -45.45117 | 34246 ft | 432 kts | 224° |
| 2026-05-05 05:27 | 38.96414 | -45.49833 | 34251 ft | 432 kts | 224° |
| 2026-05-05 05:27 | 38.89258 | -45.56926 | 34262 ft | 434 kts | 223° |
| 2026-05-05 05:28 | 38.84512 | -45.61628 | 34247 ft | 433 kts | 223° |
| 2026-05-05 05:28 | 38.79739 | -45.66351 | 34244 ft | 433 kts | 223° |
| 2026-05-05 05:29 | 38.74974 | -45.71058 | 34240 ft | 433 kts | 223° |
| 2026-05-05 05:29 | 38.70197 | -45.75769 | 34239 ft | 432 kts | 223° |
| 2026-05-05 05:30 | 38.65437 | -45.80455 | 34253 ft | 432 kts | 223° |
| 2026-05-05 05:30 | 38.60667 | -45.85142 | 34254 ft | 432 kts | 223° |
| 2026-05-05 05:31 | 38.55905 | -45.89814 | 34239 ft | 432 kts | 223° |
| 2026-05-05 05:31 | 38.51136 | -45.94484 | 34248 ft | 432 kts | 223° |
| 2026-05-05 05:32 | 38.46397 | -45.99117 | 34245 ft | 432 kts | 223° |
| 2026-05-05 05:32 | 38.41630 | -46.03769 | 34247 ft | 431 kts | 223° |
| 2026-05-05 05:33 | 38.36863 | -46.08413 | 34249 ft | 431 kts | 223° |
| 2026-05-05 05:33 | 38.32085 | -46.13034 | 34251 ft | 431 kts | 223° |
| 2026-05-05 05:34 | 38.27307 | -46.17652 | 34245 ft | 431 kts | 223° |
| 2026-05-05 05:34 | 38.22547 | -46.22260 | 34249 ft | 431 kts | 223° |
| 2026-05-05 05:35 | 38.17775 | -46.26878 | 34243 ft | 431 kts | 223° |
| 2026-05-05 05:35 | 38.13004 | -46.31487 | 34245 ft | 430 kts | 223° |
| 2026-05-05 05:36 | 38.08230 | -46.36093 | 34244 ft | 432 kts | 223° |
| 2026-05-05 05:36 | 38.03437 | -46.40707 | 34245 ft | 432 kts | 223° |
| 2026-05-05 05:37 | 37.98671 | -46.45287 | 34245 ft | 431 kts | 223° |
| 2026-05-05 05:37 | 37.93884 | -46.49880 | 34249 ft | 431 kts | 223° |
| 2026-05-05 05:38 | 37.89095 | -46.54468 | 34247 ft | 431 kts | 223° |
| 2026-05-05 05:38 | 37.84314 | -46.59040 | 34246 ft | 431 kts | 223° |
| 2026-05-05 05:39 | 37.79529 | -46.63608 | 34244 ft | 431 kts | 223° |
| 2026-05-05 05:39 | 37.74746 | -46.68167 | 34245 ft | 430 kts | 223° |
| 2026-05-05 05:40 | 37.69994 | -46.72689 | 34232 ft | 431 kts | 223° |
| 2026-05-05 05:40 | 37.65179 | -46.77237 | 34243 ft | 432 kts | 222° |
| 2026-05-05 05:41 | 37.60367 | -46.81781 | 34240 ft | 432 kts | 223° |
| 2026-05-05 05:41 | 37.55556 | -46.86330 | 34246 ft | 432 kts | 223° |
| 2026-05-05 05:42 | 37.50749 | -46.90874 | 34243 ft | 432 kts | 223° |
| 2026-05-05 05:42 | 37.45941 | -46.95412 | 34239 ft | 431 kts | 223° |
| 2026-05-05 05:43 | 37.41145 | -46.99930 | 34243 ft | 431 kts | 223° |
| 2026-05-05 05:43 | 37.36342 | -47.04448 | 34245 ft | 431 kts | 223° |
| 2026-05-05 05:44 | 37.31546 | -47.08952 | 34244 ft | 430 kts | 223° |
| 2026-05-05 05:44 | 37.27549 | -47.12701 | 34245 ft | 432 kts | 223° |
| 2026-05-05 05:45 | 37.22735 | -47.17208 | 34245 ft | 432 kts | 222° |
| 2026-05-05 05:45 | 37.17914 | -47.21713 | 34243 ft | 431 kts | 223° |
| 2026-05-05 05:46 | 37.13101 | -47.26204 | 34246 ft | 431 kts | 222° |
| 2026-05-05 05:46 | 37.08288 | -47.30688 | 34246 ft | 431 kts | 222° |
| 2026-05-05 05:47 | 37.03482 | -47.35158 | 34245 ft | 430 kts | 222° |
| 2026-05-05 05:47 | 36.98656 | -47.39614 | 34245 ft | 430 kts | 222° |
| 2026-05-05 05:48 | 36.93870 | -47.44033 | 34245 ft | 430 kts | 222° |
| 2026-05-05 05:48 | 36.89055 | -47.48485 | 34239 ft | 431 kts | 222° |
| 2026-05-05 05:49 | 36.84227 | -47.52949 | 34243 ft | 432 kts | 222° |
| 2026-05-05 05:49 | 36.79386 | -47.57414 | 34234 ft | 432 kts | 222° |
| 2026-05-05 05:50 | 36.74549 | -47.61869 | 34246 ft | 432 kts | 222° |
| 2026-05-05 05:50 | 36.69719 | -47.66312 | 34246 ft | 431 kts | 222° |
| 2026-05-05 05:51 | 36.64920 | -47.70719 | 34240 ft | 431 kts | 222° |
| 2026-05-05 05:51 | 36.60089 | -47.75147 | 34244 ft | 431 kts | 222° |
| 2026-05-05 05:52 | 36.55256 | -47.79571 | 34244 ft | 431 kts | 222° |
| 2026-05-05 05:52 | 36.50426 | -47.83986 | 34241 ft | 432 kts | 222° |
| 2026-05-05 05:53 | 36.45579 | -47.88408 | 34246 ft | 432 kts | 222° |
| 2026-05-05 05:53 | 36.40729 | -47.92826 | 34243 ft | 432 kts | 222° |
| 2026-05-05 05:54 | 36.35882 | -47.97232 | 34245 ft | 432 kts | 222° |
| 2026-05-05 05:54 | 36.31015 | -48.01627 | 34259 ft | 432 kts | 221° |
| 2026-05-05 05:55 | 36.26200 | -48.05973 | 34230 ft | 430 kts | 221° |
| 2026-05-05 05:55 | 36.21357 | -48.10354 | 34241 ft | 430 kts | 222° |
| 2026-05-05 05:56 | 36.16525 | -48.14723 | 34241 ft | 430 kts | 221° |
| 2026-05-05 05:56 | 36.11675 | -48.19099 | 34247 ft | 431 kts | 222° |
| 2026-05-05 05:57 | 36.06823 | -48.23471 | 34236 ft | 431 kts | 221° |
| 2026-05-05 05:57 | 36.02021 | -48.27789 | 34239 ft | 429 kts | 221° |
| 2026-05-05 05:58 | 35.97191 | -48.32127 | 34244 ft | 429 kts | 221° |
| 2026-05-05 05:58 | 35.92354 | -48.36466 | 34246 ft | 429 kts | 221° |
| 2026-05-05 05:59 | 35.87527 | -48.40788 | 34243 ft | 429 kts | 221° |
| 2026-05-05 05:59 | 35.82690 | -48.45113 | 34245 ft | 429 kts | 221° |
| 2026-05-05 06:00 | 35.77875 | -48.49409 | 34240 ft | 427 kts | 221° |
| 2026-05-05 06:00 | 35.73092 | -48.53673 | 34218 ft | 427 kts | 221° |
| 2026-05-05 06:01 | 35.68266 | -48.57966 | 34231 ft | 428 kts | 221° |
| 2026-05-05 06:01 | 35.63433 | -48.62235 | 34233 ft | 428 kts | 221° |
| 2026-05-05 06:02 | 35.58593 | -48.66514 | 34224 ft | 427 kts | 221° |
| 2026-05-05 06:02 | 35.53775 | -48.70777 | 34235 ft | 426 kts | 221° |
| 2026-05-05 06:03 | 35.48958 | -48.75038 | 34232 ft | 426 kts | 221° |
| 2026-05-05 06:03 | 35.44146 | -48.79289 | 34222 ft | 427 kts | 221° |
| 2026-05-05 06:04 | 35.39320 | -48.83544 | 34230 ft | 427 kts | 221° |
| 2026-05-05 06:04 | 35.34499 | -48.87789 | 34230 ft | 427 kts | 221° |
| 2026-05-05 06:05 | 35.29670 | -48.92035 | 34222 ft | 427 kts | 221° |
| 2026-05-05 06:05 | 35.24838 | -48.96277 | 34229 ft | 428 kts | 221° |
| 2026-05-05 06:06 | 35.19996 | -49.00520 | 34228 ft | 428 kts | 221° |
| 2026-05-05 06:06 | 35.15176 | -49.04739 | 34221 ft | 429 kts | 221° |
| 2026-05-05 06:07 | 35.10318 | -49.08985 | 34244 ft | 429 kts | 221° |
| 2026-05-05 06:07 | 35.05468 | -49.13214 | 34227 ft | 428 kts | 221° |
| 2026-05-05 06:08 | 35.00632 | -49.17426 | 34227 ft | 427 kts | 221° |
| 2026-05-05 06:08 | 34.95782 | -49.21623 | 34225 ft | 427 kts | 221° |
| 2026-05-05 06:09 | 34.90930 | -49.25824 | 34230 ft | 427 kts | 221° |
| 2026-05-05 06:09 | 34.86077 | -49.30031 | 34215 ft | 429 kts | 221° |
| 2026-05-05 06:10 | 34.81223 | -49.34233 | 34224 ft | 428 kts | 221° |
| 2026-05-05 06:10 | 34.76406 | -49.38398 | 34221 ft | 427 kts | 221° |
| 2026-05-05 06:11 | 34.71548 | -49.42595 | 34220 ft | 429 kts | 221° |
| 2026-05-05 06:11 | 34.66673 | -49.46800 | 34224 ft | 430 kts | 220° |
| 2026-05-05 06:12 | 34.61792 | -49.51002 | 34220 ft | 430 kts | 220° |
| 2026-05-05 06:12 | 34.56901 | -49.55205 | 34228 ft | 430 kts | 220° |
| 2026-05-05 06:13 | 34.52017 | -49.59399 | 34230 ft | 431 kts | 220° |
| 2026-05-05 06:13 | 34.47123 | -49.63594 | 34207 ft | 431 kts | 220° |
| 2026-05-05 06:14 | 34.42223 | -49.67789 | 34222 ft | 432 kts | 220° |
| 2026-05-05 06:14 | 34.37309 | -49.71988 | 34221 ft | 433 kts | 220° |
| 2026-05-05 06:15 | 34.32382 | -49.76190 | 34211 ft | 432 kts | 220° |
| 2026-05-05 06:15 | 34.27459 | -49.80363 | 34214 ft | 433 kts | 220° |
| 2026-05-05 06:16 | 34.22517 | -49.84555 | 34213 ft | 434 kts | 220° |
| 2026-05-05 06:16 | 34.17606 | -49.88724 | 34214 ft | 434 kts | 220° |
| 2026-05-05 06:17 | 34.12657 | -49.92924 | 34212 ft | 436 kts | 220° |
| 2026-05-05 06:17 | 34.07681 | -49.97140 | 34227 ft | 437 kts | 219° |
| 2026-05-05 06:18 | 34.02710 | -50.01343 | 34214 ft | 436 kts | 219° |
| 2026-05-05 06:18 | 33.97742 | -50.05541 | 34211 ft | 437 kts | 219° |
| 2026-05-05 06:19 | 33.92759 | -50.09744 | 34211 ft | 438 kts | 219° |
| 2026-05-05 06:19 | 33.87804 | -50.13917 | 34211 ft | 438 kts | 219° |
| 2026-05-05 06:20 | 33.82807 | -50.18120 | 34204 ft | 439 kts | 219° |
| 2026-05-05 06:20 | 33.77805 | -50.22320 | 34213 ft | 438 kts | 219° |
| 2026-05-05 06:21 | 33.72802 | -50.26515 | 34211 ft | 438 kts | 219° |
| 2026-05-05 06:21 | 33.67799 | -50.30705 | 34200 ft | 438 kts | 219° |
| 2026-05-05 06:22 | 33.62793 | -50.34883 | 34208 ft | 439 kts | 218° |
| 2026-05-05 06:22 | 33.57772 | -50.39053 | 34208 ft | 439 kts | 218° |
| 2026-05-05 06:23 | 33.52757 | -50.43225 | 34214 ft | 437 kts | 219° |
| 2026-05-05 06:23 | 33.47767 | -50.47377 | 34208 ft | 436 kts | 219° |
| 2026-05-05 06:24 | 33.42814 | -50.51495 | 34206 ft | 436 kts | 219° |
| 2026-05-05 06:24 | 33.37826 | -50.55637 | 34190 ft | 436 kts | 218° |
| 2026-05-05 06:25 | 33.32861 | -50.59800 | 34205 ft | 435 kts | 220° |
| 2026-05-05 06:25 | 33.28039 | -50.64188 | 34205 ft | 434 kts | 221° |
| 2026-05-05 06:26 | 33.23287 | -50.68625 | 34207 ft | 433 kts | 221° |
| 2026-05-05 06:26 | 33.18532 | -50.73051 | 34202 ft | 433 kts | 221° |
| 2026-05-05 06:27 | 33.11388 | -50.79664 | 34200 ft | 433 kts | 221° |
| 2026-05-05 06:28 | 33.06629 | -50.84058 | 34192 ft | 433 kts | 221° |
| 2026-05-05 06:28 | 33.01897 | -50.88420 | 34205 ft | 432 kts | 221° |
| 2026-05-05 06:29 | 32.97143 | -50.92797 | 34201 ft | 431 kts | 221° |
| 2026-05-05 06:29 | 32.92397 | -50.97160 | 34199 ft | 431 kts | 221° |
| 2026-05-05 06:30 | 32.87644 | -51.01524 | 34197 ft | 431 kts | 221° |
| 2026-05-05 06:30 | 32.82892 | -51.05881 | 34200 ft | 431 kts | 221° |
| 2026-05-05 06:31 | 32.78223 | -51.10156 | 34199 ft | 431 kts | 221° |
| 2026-05-05 06:31 | 32.73465 | -51.14507 | 34193 ft | 431 kts | 221° |
| 2026-05-05 06:32 | 32.68703 | -51.18855 | 34197 ft | 432 kts | 221° |
| 2026-05-05 06:32 | 32.63962 | -51.23159 | 34197 ft | 432 kts | 221° |
| 2026-05-05 06:33 | 32.59189 | -51.27487 | 34189 ft | 432 kts | 221° |
| 2026-05-05 06:33 | 32.54419 | -51.31819 | 34197 ft | 432 kts | 221° |
| 2026-05-05 06:34 | 32.49653 | -51.36146 | 34196 ft | 430 kts | 221° |
| 2026-05-05 06:34 | 32.44917 | -51.40440 | 34194 ft | 429 kts | 221° |
| 2026-05-05 06:35 | 32.40166 | -51.44743 | 34195 ft | 430 kts | 221° |
| 2026-05-05 06:35 | 32.35436 | -51.49020 | 34194 ft | 430 kts | 221° |
| 2026-05-05 06:36 | 32.30686 | -51.53310 | 34198 ft | 430 kts | 221° |
| 2026-05-05 06:36 | 32.25923 | -51.57606 | 34213 ft | 431 kts | 221° |
| 2026-05-05 06:37 | 32.21157 | -51.61899 | 34197 ft | 430 kts | 221° |
| 2026-05-05 06:37 | 32.17202 | -51.65455 | 34197 ft | 429 kts | 221° |
| 2026-05-05 06:38 | 32.12452 | -51.69723 | 34197 ft | 429 kts | 221° |
| 2026-05-05 06:38 | 32.07682 | -51.74003 | 34197 ft | 432 kts | 221° |
| 2026-05-05 06:39 | 32.02896 | -51.78291 | 34199 ft | 432 kts | 221° |
| 2026-05-05 06:39 | 31.98103 | -51.82563 | 34200 ft | 431 kts | 221° |
| 2026-05-05 06:40 | 31.93331 | -51.86808 | 34201 ft | 429 kts | 221° |
| 2026-05-05 06:40 | 31.88600 | -51.91025 | 34193 ft | 429 kts | 221° |
| 2026-05-05 06:41 | 31.83845 | -51.95262 | 34196 ft | 429 kts | 221° |
| 2026-05-05 06:41 | 31.79075 | -51.99508 | 34181 ft | 429 kts | 221° |
| 2026-05-05 06:42 | 31.74298 | -52.03755 | 34190 ft | 432 kts | 221° |
| 2026-05-05 06:42 | 31.69512 | -52.08002 | 34191 ft | 430 kts | 221° |
| 2026-05-05 06:43 | 31.64738 | -52.12233 | 34194 ft | 429 kts | 221° |
| 2026-05-05 06:43 | 31.59989 | -52.16438 | 34187 ft | 431 kts | 221° |
| 2026-05-05 06:44 | 31.55198 | -52.20675 | 34190 ft | 432 kts | 221° |
| 2026-05-05 06:44 | 31.50395 | -52.24915 | 34191 ft | 432 kts | 221° |
| 2026-05-05 06:45 | 31.45590 | -52.29151 | 34187 ft | 432 kts | 221° |
| 2026-05-05 06:45 | 31.40787 | -52.33381 | 34188 ft | 432 kts | 221° |
| 2026-05-05 06:46 | 31.35986 | -52.37603 | 34188 ft | 432 kts | 221° |
| 2026-05-05 06:46 | 31.31170 | -52.41816 | 34189 ft | 432 kts | 221° |
| 2026-05-05 06:47 | 31.26358 | -52.46021 | 34185 ft | 433 kts | 221° |
| 2026-05-05 06:47 | 31.21531 | -52.50245 | 34187 ft | 433 kts | 221° |
| 2026-05-05 06:48 | 31.16705 | -52.54466 | 34187 ft | 433 kts | 221° |
| 2026-05-05 06:48 | 31.11887 | -52.58675 | 34187 ft | 432 kts | 221° |
| 2026-05-05 06:49 | 31.07065 | -52.62884 | 34189 ft | 433 kts | 221° |
| 2026-05-05 06:49 | 31.02245 | -52.67084 | 34184 ft | 433 kts | 221° |
| 2026-05-05 06:50 | 30.97446 | -52.71260 | 34185 ft | 433 kts | 221° |
| 2026-05-05 06:50 | 30.92612 | -52.75461 | 34190 ft | 434 kts | 221° |
| 2026-05-05 06:51 | 30.87775 | -52.79660 | 34181 ft | 434 kts | 221° |
| 2026-05-05 06:51 | 30.82936 | -52.83855 | 34181 ft | 433 kts | 221° |
| 2026-05-05 06:52 | 30.78101 | -52.88041 | 34181 ft | 433 kts | 220° |
| 2026-05-05 06:52 | 30.73247 | -52.92238 | 34175 ft | 435 kts | 221° |
| 2026-05-05 06:53 | 30.68388 | -52.96434 | 34185 ft | 435 kts | 220° |
| 2026-05-05 06:53 | 30.63523 | -53.00611 | 34188 ft | 435 kts | 220° |
| 2026-05-05 06:54 | 30.58661 | -53.04784 | 34182 ft | 434 kts | 220° |
| 2026-05-05 06:54 | 30.53802 | -53.08961 | 34188 ft | 435 kts | 220° |
| 2026-05-05 06:55 | 30.48941 | -53.13137 | 34186 ft | 435 kts | 220° |
| 2026-05-05 06:55 | 30.44086 | -53.17303 | 34185 ft | 434 kts | 220° |
| 2026-05-05 06:56 | 30.39253 | -53.21445 | 34176 ft | 436 kts | 220° |
| 2026-05-05 06:56 | 30.34370 | -53.25625 | 34196 ft | 436 kts | 220° |
| 2026-05-05 06:57 | 30.29495 | -53.29790 | 34186 ft | 435 kts | 220° |
| 2026-05-05 06:57 | 30.24621 | -53.33951 | 34177 ft | 435 kts | 220° |
| 2026-05-05 06:58 | 30.19757 | -53.38099 | 34181 ft | 435 kts | 220° |
| 2026-05-05 06:58 | 30.14894 | -53.42240 | 34187 ft | 434 kts | 220° |
| 2026-05-05 06:59 | 30.10023 | -53.46383 | 34181 ft | 435 kts | 220° |
| 2026-05-05 06:59 | 30.05150 | -53.50522 | 34167 ft | 435 kts | 220° |
| 2026-05-05 07:00 | 30.00297 | -53.54637 | 34180 ft | 436 kts | 220° |
| 2026-05-05 07:00 | 29.95376 | -53.58786 | 34185 ft | 435 kts | 220° |
| 2026-05-05 07:01 | 29.90485 | -53.62914 | 34186 ft | 435 kts | 220° |
| 2026-05-05 07:01 | 29.85625 | -53.67019 | 34181 ft | 436 kts | 220° |
| 2026-05-05 07:02 | 29.80727 | -53.71154 | 34183 ft | 437 kts | 220° |
| 2026-05-05 07:02 | 29.75820 | -53.75291 | 34185 ft | 437 kts | 220° |
| 2026-05-05 07:03 | 29.70920 | -53.79416 | 34183 ft | 436 kts | 220° |
| 2026-05-05 07:03 | 29.66028 | -53.83531 | 34180 ft | 436 kts | 220° |
| 2026-05-05 07:04 | 29.61124 | -53.87650 | 34185 ft | 436 kts | 220° |
| 2026-05-05 07:04 | 29.56230 | -53.91755 | 34183 ft | 436 kts | 220° |
| 2026-05-05 07:05 | 29.51324 | -53.95865 | 34185 ft | 436 kts | 220° |
| 2026-05-05 07:05 | 29.46411 | -53.99976 | 34193 ft | 437 kts | 220° |
| 2026-05-05 07:06 | 29.41510 | -54.04072 | 34184 ft | 435 kts | 220° |
| 2026-05-05 07:06 | 29.36618 | -54.08155 | 34183 ft | 435 kts | 219° |
| 2026-05-05 07:07 | 29.31712 | -54.12239 | 34172 ft | 435 kts | 219° |
| 2026-05-05 07:07 | 29.26809 | -54.16304 | 34182 ft | 435 kts | 219° |
| 2026-05-05 07:08 | 29.21904 | -54.20376 | 34181 ft | 435 kts | 219° |
| 2026-05-05 07:08 | 29.17008 | -54.24443 | 34184 ft | 435 kts | 219° |
| 2026-05-05 07:09 | 29.12121 | -54.28496 | 34178 ft | 434 kts | 220° |
| 2026-05-05 07:09 | 29.07256 | -54.32529 | 34184 ft | 435 kts | 220° |
| 2026-05-05 07:10 | 29.02362 | -54.36580 | 34181 ft | 435 kts | 220° |
| 2026-05-05 07:10 | 28.97460 | -54.40633 | 34182 ft | 435 kts | 220° |
| 2026-05-05 07:11 | 28.92553 | -54.44685 | 34176 ft | 436 kts | 220° |
| 2026-05-05 07:11 | 28.87632 | -54.48743 | 34179 ft | 437 kts | 220° |
| 2026-05-05 07:12 | 28.82708 | -54.52799 | 34182 ft | 436 kts | 220° |
| 2026-05-05 07:12 | 28.77799 | -54.56837 | 34185 ft | 435 kts | 220° |
| 2026-05-05 07:13 | 28.72878 | -54.60882 | 34178 ft | 437 kts | 220° |
| 2026-05-05 07:13 | 28.67934 | -54.64941 | 34170 ft | 438 kts | 220° |
| 2026-05-05 07:14 | 28.62981 | -54.68989 | 34175 ft | 438 kts | 219° |
| 2026-05-05 07:14 | 28.58032 | -54.73026 | 34176 ft | 438 kts | 220° |
| 2026-05-05 07:15 | 28.53107 | -54.77049 | 34164 ft | 439 kts | 220° |
| 2026-05-05 07:15 | 28.48145 | -54.81102 | 34181 ft | 439 kts | 220° |
| 2026-05-05 07:16 | 28.43181 | -54.85152 | 34179 ft | 439 kts | 219° |
| 2026-05-05 07:16 | 28.38215 | -54.89200 | 34179 ft | 439 kts | 219° |
| 2026-05-05 07:17 | 28.33256 | -54.93236 | 34181 ft | 439 kts | 219° |
| 2026-05-05 07:17 | 28.28293 | -54.97272 | 34169 ft | 439 kts | 219° |
| 2026-05-05 07:18 | 28.23329 | -55.01303 | 34174 ft | 438 kts | 219° |
| 2026-05-05 07:18 | 28.18378 | -55.05318 | 34171 ft | 437 kts | 219° |
| 2026-05-05 07:19 | 28.13420 | -55.09336 | 34177 ft | 438 kts | 219° |
| 2026-05-05 07:19 | 28.08464 | -55.13347 | 34176 ft | 439 kts | 219° |
| 2026-05-05 07:20 | 28.03527 | -55.17337 | 34178 ft | 439 kts | 219° |
| 2026-05-05 07:20 | 27.98552 | -55.21353 | 34178 ft | 439 kts | 219° |
| 2026-05-05 07:21 | 27.93567 | -55.25358 | 34172 ft | 440 kts | 219° |
| 2026-05-05 07:21 | 27.88575 | -55.29367 | 34175 ft | 439 kts | 219° |
| 2026-05-05 07:22 | 27.83600 | -55.33366 | 34175 ft | 439 kts | 219° |
| 2026-05-05 07:22 | 27.78625 | -55.37365 | 34174 ft | 438 kts | 219° |
| 2026-05-05 07:23 | 27.73650 | -55.41360 | 34169 ft | 440 kts | 219° |
| 2026-05-05 07:23 | 27.68660 | -55.45361 | 34170 ft | 440 kts | 219° |
| 2026-05-05 07:24 | 27.64507 | -55.48686 | 34168 ft | 440 kts | 219° |
| 2026-05-05 07:24 | 27.58691 | -55.53340 | 34176 ft | 440 kts | 219° |
| 2026-05-05 07:25 | 27.53702 | -55.57325 | 34166 ft | 440 kts | 219° |
| 2026-05-05 07:25 | 27.49548 | -55.60642 | 34170 ft | 440 kts | 219° |
| 2026-05-05 07:26 | 27.44548 | -55.64629 | 34175 ft | 440 kts | 219° |
| 2026-05-05 07:26 | 27.39549 | -55.68610 | 34170 ft | 440 kts | 219° |
| 2026-05-05 07:27 | 27.34542 | -55.72594 | 34162 ft | 441 kts | 219° |
| 2026-05-05 07:27 | 27.29527 | -55.76577 | 34169 ft | 442 kts | 219° |
| 2026-05-05 07:28 | 27.24500 | -55.80550 | 34170 ft | 441 kts | 219° |
| 2026-05-05 07:28 | 27.19489 | -55.84514 | 34163 ft | 440 kts | 219° |
| 2026-05-05 07:29 | 27.14484 | -55.88476 | 34161 ft | 441 kts | 219° |
| 2026-05-05 07:29 | 27.09502 | -55.92418 | 34166 ft | 442 kts | 219° |
| 2026-05-05 07:30 | 27.04476 | -55.96390 | 34163 ft | 442 kts | 218° |
| 2026-05-05 07:30 | 26.97002 | -56.02425 | 34164 ft | 441 kts | 220° |
| 2026-05-05 07:31 | 26.92107 | -56.06573 | 34168 ft | 442 kts | 220° |
| 2026-05-05 07:31 | 26.87189 | -56.10751 | 34165 ft | 443 kts | 220° |
| 2026-05-05 07:32 | 26.82274 | -56.14910 | 34166 ft | 443 kts | 220° |
| 2026-05-05 07:32 | 26.77352 | -56.19065 | 34158 ft | 443 kts | 220° |
| 2026-05-05 07:33 | 26.72420 | -56.23224 | 34158 ft | 445 kts | 220° |
| 2026-05-05 07:33 | 26.67465 | -56.27397 | 34159 ft | 446 kts | 220° |
| 2026-05-05 07:34 | 26.62543 | -56.31537 | 34165 ft | 445 kts | 220° |
| 2026-05-05 07:34 | 26.57618 | -56.35676 | 34162 ft | 443 kts | 220° |
| 2026-05-05 07:35 | 26.52680 | -56.39821 | 34156 ft | 445 kts | 220° |
| 2026-05-05 07:35 | 26.47725 | -56.43976 | 34159 ft | 445 kts | 220° |
| 2026-05-05 07:36 | 26.42771 | -56.48125 | 34159 ft | 446 kts | 220° |
| 2026-05-05 07:36 | 26.37809 | -56.52276 | 34156 ft | 446 kts | 220° |
| 2026-05-05 07:37 | 26.32852 | -56.56415 | 34161 ft | 445 kts | 220° |
| 2026-05-05 07:37 | 26.27889 | -56.60541 | 34160 ft | 444 kts | 220° |
| 2026-05-05 07:38 | 26.22942 | -56.64658 | 34157 ft | 443 kts | 220° |
| 2026-05-05 07:38 | 26.17998 | -56.68775 | 34157 ft | 443 kts | 220° |
| 2026-05-05 07:39 | 26.13054 | -56.72890 | 34157 ft | 443 kts | 220° |
| 2026-05-05 07:39 | 26.08102 | -56.77006 | 34155 ft | 444 kts | 220° |
| 2026-05-05 07:40 | 26.03152 | -56.81116 | 34158 ft | 444 kts | 220° |
| 2026-05-05 07:40 | 25.98194 | -56.85227 | 34159 ft | 444 kts | 220° |
| 2026-05-05 07:41 | 25.93258 | -56.89316 | 34153 ft | 442 kts | 220° |
| 2026-05-05 07:41 | 25.88315 | -56.93407 | 34152 ft | 444 kts | 220° |
| 2026-05-05 07:42 | 25.83393 | -56.97476 | 34153 ft | 444 kts | 220° |
| 2026-05-05 07:42 | 25.78437 | -57.01569 | 34154 ft | 444 kts | 220° |
| 2026-05-05 07:43 | 25.73479 | -57.05658 | 34153 ft | 444 kts | 220° |
| 2026-05-05 07:43 | 25.68512 | -57.09752 | 34147 ft | 445 kts | 219° |
| 2026-05-05 07:44 | 25.63538 | -57.13835 | 34155 ft | 445 kts | 219° |
| 2026-05-05 07:44 | 25.58565 | -57.17911 | 34151 ft | 444 kts | 219° |
| 2026-05-05 07:45 | 25.53593 | -57.21991 | 34151 ft | 444 kts | 219° |
| 2026-05-05 07:45 | 25.48658 | -57.26039 | 34151 ft | 444 kts | 219° |
| 2026-05-05 07:46 | 25.43682 | -57.30120 | 34151 ft | 446 kts | 219° |
| 2026-05-05 07:46 | 25.38694 | -57.34204 | 34151 ft | 446 kts | 219° |
| 2026-05-05 07:47 | 25.33738 | -57.38257 | 34155 ft | 446 kts | 219° |
| 2026-05-05 07:47 | 25.28759 | -57.42325 | 34149 ft | 444 kts | 219° |
| 2026-05-05 07:48 | 25.23790 | -57.46381 | 34149 ft | 445 kts | 219° |
| 2026-05-05 07:48 | 25.18810 | -57.50442 | 34151 ft | 445 kts | 219° |
| 2026-05-05 07:49 | 25.13814 | -57.54511 | 34151 ft | 445 kts | 219° |
| 2026-05-05 07:49 | 25.08835 | -57.58562 | 34152 ft | 445 kts | 219° |
| 2026-05-05 07:50 | 25.03850 | -57.62614 | 34137 ft | 445 kts | 219° |
| 2026-05-05 07:50 | 24.98844 | -57.66676 | 34151 ft | 446 kts | 219° |
| 2026-05-05 07:51 | 24.93838 | -57.70721 | 34146 ft | 446 kts | 219° |
| 2026-05-05 07:51 | 24.88837 | -57.74765 | 34146 ft | 446 kts | 219° |
| 2026-05-05 07:52 | 24.83839 | -57.78810 | 34146 ft | 446 kts | 219° |
| 2026-05-05 07:52 | 24.78839 | -57.82853 | 34142 ft | 447 kts | 219° |
| 2026-05-05 07:53 | 24.73817 | -57.86911 | 34142 ft | 448 kts | 219° |
| 2026-05-05 07:53 | 24.68826 | -57.90937 | 34144 ft | 448 kts | 219° |
| 2026-05-05 07:54 | 24.63804 | -57.94986 | 34141 ft | 447 kts | 219° |
| 2026-05-05 07:54 | 24.58795 | -57.99020 | 34136 ft | 447 kts | 219° |
| 2026-05-05 07:55 | 24.53766 | -58.03066 | 34142 ft | 448 kts | 219° |
| 2026-05-05 07:55 | 24.48726 | -58.07116 | 34144 ft | 448 kts | 219° |
| 2026-05-05 07:56 | 24.43691 | -58.11159 | 34141 ft | 448 kts | 219° |
| 2026-05-05 07:56 | 24.38688 | -58.15171 | 34141 ft | 448 kts | 219° |
| 2026-05-05 07:57 | 24.33647 | -58.19210 | 34141 ft | 450 kts | 219° |
| 2026-05-05 07:57 | 24.28588 | -58.23247 | 34144 ft | 449 kts | 218° |
| 2026-05-05 07:58 | 24.23537 | -58.27275 | 34140 ft | 449 kts | 219° |
| 2026-05-05 07:58 | 24.18489 | -58.31305 | 34140 ft | 448 kts | 219° |
| 2026-05-05 07:59 | 24.13452 | -58.35323 | 34140 ft | 448 kts | 219° |
| 2026-05-05 07:59 | 24.08414 | -58.39340 | 34138 ft | 448 kts | 219° |
| 2026-05-05 08:00 | 24.03381 | -58.43349 | 34140 ft | 447 kts | 219° |
| 2026-05-05 08:00 | 23.98345 | -58.47356 | 34140 ft | 447 kts | 218° |
| 2026-05-05 08:01 | 23.93317 | -58.51352 | 34139 ft | 446 kts | 218° |
| 2026-05-05 08:01 | 23.88297 | -58.55338 | 34136 ft | 447 kts | 218° |
| 2026-05-05 08:02 | 23.83253 | -58.59339 | 34135 ft | 448 kts | 218° |
| 2026-05-05 08:02 | 23.78240 | -58.63312 | 34135 ft | 448 kts | 218° |
| 2026-05-05 08:03 | 23.73193 | -58.67308 | 34135 ft | 448 kts | 218° |
| 2026-05-05 08:03 | 23.68143 | -58.71301 | 34122 ft | 448 kts | 218° |
| 2026-05-05 08:04 | 23.63087 | -58.75291 | 34134 ft | 449 kts | 218° |
| 2026-05-05 08:04 | 23.58033 | -58.79267 | 34135 ft | 449 kts | 218° |
| 2026-05-05 08:05 | 23.52968 | -58.83256 | 34129 ft | 449 kts | 218° |
| 2026-05-05 08:05 | 23.47938 | -58.87218 | 34129 ft | 449 kts | 218° |
| 2026-05-05 08:06 | 23.42844 | -58.91228 | 34128 ft | 450 kts | 218° |
| 2026-05-05 08:06 | 23.37795 | -58.95198 | 34129 ft | 451 kts | 218° |
| 2026-05-05 08:07 | 23.32709 | -58.99193 | 34132 ft | 451 kts | 218° |
| 2026-05-05 08:07 | 23.27622 | -59.03186 | 34135 ft | 451 kts | 218° |
| 2026-05-05 08:08 | 23.22554 | -59.07159 | 34129 ft | 448 kts | 218° |
| 2026-05-05 08:08 | 23.17483 | -59.11131 | 34129 ft | 450 kts | 218° |
| 2026-05-05 08:09 | 23.12408 | -59.15102 | 34129 ft | 450 kts | 218° |
| 2026-05-05 08:09 | 23.07326 | -59.19076 | 34129 ft | 450 kts | 218° |
| 2026-05-05 08:10 | 23.02242 | -59.23046 | 34129 ft | 450 kts | 218° |
| 2026-05-05 08:10 | 22.97162 | -59.27009 | 34117 ft | 450 kts | 218° |
| 2026-05-05 08:11 | 22.92051 | -59.30980 | 34127 ft | 451 kts | 218° |
| 2026-05-05 08:11 | 22.86954 | -59.34942 | 34127 ft | 450 kts | 218° |
| 2026-05-05 08:12 | 22.81877 | -59.38890 | 34128 ft | 449 kts | 218° |
| 2026-05-05 08:12 | 22.76830 | -59.42814 | 34127 ft | 449 kts | 218° |
| 2026-05-05 08:13 | 22.71751 | -59.46759 | 34122 ft | 450 kts | 218° |
| 2026-05-05 08:13 | 22.66651 | -59.50717 | 34124 ft | 451 kts | 218° |
| 2026-05-05 08:14 | 22.62406 | -59.54007 | 34124 ft | 451 kts | 218° |
| 2026-05-05 08:14 | 22.57307 | -59.57956 | 34124 ft | 450 kts | 218° |
| 2026-05-05 08:15 | 22.52183 | -59.61921 | 34127 ft | 449 kts | 218° |
| 2026-05-05 08:15 | 22.47131 | -59.65827 | 34123 ft | 450 kts | 218° |
| 2026-05-05 08:16 | 22.42034 | -59.69764 | 34122 ft | 450 kts | 218° |
| 2026-05-05 08:16 | 22.36889 | -59.73621 | 34122 ft | 451 kts | 216° |
| 2026-05-05 08:17 | 22.31605 | -59.77285 | 34121 ft | 451 kts | 214° |
| 2026-05-05 08:17 | 22.26302 | -59.80914 | 34124 ft | 451 kts | 214° |
| 2026-05-05 08:18 | 22.21011 | -59.84552 | 34137 ft | 452 kts | 215° |
| 2026-05-05 08:18 | 22.15705 | -59.88209 | 34126 ft | 452 kts | 215° |
| 2026-05-05 08:19 | 22.10407 | -59.91859 | 34112 ft | 451 kts | 215° |
| 2026-05-05 08:19 | 22.05130 | -59.95491 | 34112 ft | 451 kts | 215° |
| 2026-05-05 08:20 | 21.99876 | -59.99105 | 34113 ft | 451 kts | 214° |
| 2026-05-05 08:20 | 21.94581 | -60.02743 | 34118 ft | 451 kts | 214° |
| 2026-05-05 08:21 | 21.89279 | -60.06382 | 34118 ft | 451 kts | 214° |
| 2026-05-05 08:21 | 21.83982 | -60.10015 | 34124 ft | 451 kts | 214° |
| 2026-05-05 08:22 | 21.78680 | -60.13648 | 34119 ft | 451 kts | 214° |
| 2026-05-05 08:22 | 21.73383 | -60.17274 | 34122 ft | 451 kts | 214° |
| 2026-05-05 08:23 | 21.68089 | -60.20893 | 34109 ft | 450 kts | 215° |
| 2026-05-05 08:23 | 21.62808 | -60.24491 | 34112 ft | 449 kts | 215° |
| 2026-05-05 08:24 | 21.57523 | -60.28094 | 34108 ft | 449 kts | 215° |
| 2026-05-05 08:24 | 21.52250 | -60.31689 | 34112 ft | 449 kts | 215° |
| 2026-05-05 08:25 | 21.47005 | -60.35265 | 34109 ft | 450 kts | 214° |
| 2026-05-05 08:25 | 21.41714 | -60.38868 | 34117 ft | 450 kts | 214° |
| 2026-05-05 08:26 | 21.36420 | -60.42470 | 34115 ft | 450 kts | 214° |
| 2026-05-05 08:26 | 21.31137 | -60.46061 | 34117 ft | 450 kts | 214° |
| 2026-05-05 08:27 | 21.25861 | -60.49645 | 34113 ft | 448 kts | 215° |
| 2026-05-05 08:27 | 21.20587 | -60.53225 | 34112 ft | 449 kts | 214° |
| 2026-05-05 08:28 | 21.15308 | -60.56804 | 34113 ft | 449 kts | 214° |
| 2026-05-05 08:28 | 21.10018 | -60.60388 | 34103 ft | 449 kts | 214° |
| 2026-05-05 08:29 | 21.04728 | -60.63968 | 34108 ft | 449 kts | 214° |
| 2026-05-05 08:30 | 20.96798 | -60.69327 | 34100 ft | 450 kts | 214° |
| 2026-05-05 08:30 | 20.91527 | -60.72877 | 34110 ft | 450 kts | 214° |
| 2026-05-05 08:31 | 20.86227 | -60.76449 | 34110 ft | 449 kts | 214° |
| 2026-05-05 08:31 | 20.80916 | -60.80029 | 34099 ft | 448 kts | 214° |
| 2026-05-05 08:32 | 20.75643 | -60.83582 | 34103 ft | 448 kts | 214° |
| 2026-05-05 08:32 | 20.70394 | -60.87116 | 34099 ft | 450 kts | 214° |
| 2026-05-05 08:33 | 20.65102 | -60.90675 | 34105 ft | 450 kts | 214° |
| 2026-05-05 08:33 | 20.59804 | -60.94235 | 34105 ft | 450 kts | 214° |
| 2026-05-05 08:34 | 20.54513 | -60.97787 | 34104 ft | 450 kts | 214° |
| 2026-05-05 08:34 | 20.49218 | -61.01340 | 34104 ft | 450 kts | 214° |
| 2026-05-05 08:35 | 20.43918 | -61.04893 | 34096 ft | 450 kts | 214° |
| 2026-05-05 08:35 | 20.38619 | -61.08442 | 34100 ft | 449 kts | 214° |
| 2026-05-05 08:36 | 20.33325 | -61.11985 | 34094 ft | 449 kts | 214° |
| 2026-05-05 08:36 | 20.28037 | -61.15521 | 34095 ft | 448 kts | 214° |
| 2026-05-05 08:37 | 20.22783 | -61.19022 | 34093 ft | 448 kts | 214° |
| 2026-05-05 08:37 | 20.17486 | -61.22552 | 34091 ft | 450 kts | 214° |
| 2026-05-05 08:38 | 20.12174 | -61.26094 | 34090 ft | 450 kts | 214° |
| 2026-05-05 08:38 | 20.06864 | -61.29633 | 34090 ft | 450 kts | 214° |
| 2026-05-05 08:39 | 20.01556 | -61.33168 | 34088 ft | 450 kts | 214° |
| 2026-05-05 08:39 | 19.96264 | -61.36688 | 34085 ft | 448 kts | 214° |
| 2026-05-05 08:40 | 19.90972 | -61.40207 | 34084 ft | 449 kts | 214° |
| 2026-05-05 08:40 | 19.85666 | -61.43733 | 34084 ft | 450 kts | 214° |
| 2026-05-05 08:41 | 19.80361 | -61.47254 | 34084 ft | 450 kts | 214° |
| 2026-05-05 08:41 | 19.75050 | -61.50777 | 34086 ft | 450 kts | 214° |
| 2026-05-05 08:42 | 19.69743 | -61.54294 | 34082 ft | 450 kts | 214° |
| 2026-05-05 08:42 | 19.64467 | -61.57789 | 34080 ft | 450 kts | 214° |
| 2026-05-05 08:43 | 19.59152 | -61.61305 | 34086 ft | 451 kts | 214° |
| 2026-05-05 08:43 | 19.53825 | -61.64822 | 34083 ft | 451 kts | 214° |
| 2026-05-05 08:44 | 19.48490 | -61.68338 | 34081 ft | 451 kts | 214° |
| 2026-05-05 08:44 | 19.43167 | -61.71850 | 34076 ft | 451 kts | 214° |
| 2026-05-05 08:45 | 19.37835 | -61.75367 | 34079 ft | 452 kts | 214° |
| 2026-05-05 08:45 | 19.32559 | -61.78987 | 34077 ft | 450 kts | 221° |
| 2026-05-05 08:45 | 19.30347 | -61.81306 | 34083 ft | 446 kts | 232° |
| 2026-05-05 08:46 | 19.28498 | -61.83943 | 34081 ft | 446 kts | 237° |
| 2026-05-05 08:46 | 19.25156 | -61.89472 | 34079 ft | 446 kts | 239° |
| 2026-05-05 08:47 | 19.21867 | -61.94882 | 34066 ft | 420 kts | 238° |
| 2026-05-05 08:47 | 19.18661 | -61.99977 | 34076 ft | 414 kts | 238° |
| 2026-05-05 08:48 | 19.15448 | -62.05019 | 34073 ft | 413 kts | 237° |
| 2026-05-05 08:48 | 19.12230 | -62.10054 | 34072 ft | 413 kts | 237° |
| 2026-05-05 08:49 | 19.09006 | -62.15092 | 34075 ft | 413 kts | 237° |
| 2026-05-05 08:49 | 19.05787 | -62.20121 | 34075 ft | 413 kts | 237° |
| 2026-05-05 08:50 | 19.02569 | -62.25143 | 34076 ft | 412 kts | 237° |
| 2026-05-05 08:50 | 18.99354 | -62.30157 | 34070 ft | 412 kts | 237° |
| 2026-05-05 08:51 | 18.96143 | -62.35162 | 34073 ft | 412 kts | 237° |
| 2026-05-05 08:51 | 18.92931 | -62.40163 | 34073 ft | 412 kts | 237° |
| 2026-05-05 08:52 | 18.89727 | -62.45148 | 34071 ft | 413 kts | 237° |
| 2026-05-05 08:52 | 18.86500 | -62.50165 | 34073 ft | 413 kts | 237° |
| 2026-05-05 08:53 | 18.83262 | -62.55186 | 34068 ft | 412 kts | 237° |
| 2026-05-05 08:53 | 18.80030 | -62.60182 | 34067 ft | 412 kts | 237° |
| 2026-05-05 08:54 | 18.76801 | -62.65183 | 34070 ft | 412 kts | 237° |
| 2026-05-05 08:54 | 18.73573 | -62.70184 | 34070 ft | 412 kts | 237° |
| 2026-05-05 08:55 | 18.70344 | -62.75183 | 34070 ft | 412 kts | 237° |
| 2026-05-05 08:55 | 18.67119 | -62.80173 | 34057 ft | 412 kts | 237° |
| 2026-05-05 08:56 | 18.63880 | -62.85180 | 34068 ft | 413 kts | 237° |
| 2026-05-05 08:56 | 18.60639 | -62.90186 | 34061 ft | 413 kts | 237° |
| 2026-05-05 08:57 | 18.57398 | -62.95188 | 34065 ft | 413 kts | 237° |
| 2026-05-05 08:57 | 18.54179 | -63.00153 | 34062 ft | 409 kts | 237° |
| 2026-05-05 08:58 | 18.50968 | -63.05100 | 34059 ft | 409 kts | 237° |
| 2026-05-05 08:58 | 18.47776 | -63.10017 | 34059 ft | 409 kts | 237° |
| 2026-05-05 08:59 | 18.44558 | -63.14968 | 34056 ft | 409 kts | 237° |
| 2026-05-05 08:59 | 18.41857 | -63.19110 | 34054 ft | 409 kts | 237° |
| 2026-05-05 09:00 | 18.38606 | -63.24003 | 34057 ft | 410 kts | 237° |
| 2026-05-05 09:00 | 18.35323 | -63.28916 | 34055 ft | 410 kts | 237° |
| 2026-05-05 09:01 | 18.32040 | -63.33826 | 34053 ft | 410 kts | 237° |
| 2026-05-05 09:01 | 18.28757 | -63.38742 | 34051 ft | 410 kts | 237° |
| 2026-05-05 09:02 | 18.25469 | -63.43668 | 34051 ft | 410 kts | 237° |
| 2026-05-05 09:02 | 18.22192 | -63.48580 | 34051 ft | 410 kts | 237° |
| 2026-05-05 09:03 | 18.18913 | -63.53501 | 34049 ft | 410 kts | 237° |
| 2026-05-05 09:03 | 18.15635 | -63.58420 | 34046 ft | 412 kts | 237° |
| 2026-05-05 09:04 | 18.12345 | -63.63353 | 34050 ft | 412 kts | 237° |
| 2026-05-05 09:04 | 18.09064 | -63.68278 | 34052 ft | 412 kts | 237° |
| 2026-05-05 09:05 | 18.05777 | -63.73212 | 34051 ft | 412 kts | 237° |
| 2026-05-05 09:05 | 18.02494 | -63.78138 | 34049 ft | 411 kts | 237° |
| 2026-05-05 09:06 | 17.99210 | -63.83068 | 34048 ft | 412 kts | 237° |
| 2026-05-05 09:06 | 17.95948 | -63.87964 | 34048 ft | 411 kts | 237° |
| 2026-05-05 09:07 | 17.92670 | -63.92887 | 34047 ft | 411 kts | 237° |
| 2026-05-05 09:07 | 17.89386 | -63.97814 | 34045 ft | 413 kts | 237° |
| 2026-05-05 09:08 | 17.86083 | -64.02764 | 34046 ft | 413 kts | 237° |
| 2026-05-05 09:08 | 17.82787 | -64.07708 | 34048 ft | 413 kts | 237° |
| 2026-05-05 09:09 | 17.79498 | -64.12648 | 34046 ft | 413 kts | 237° |
| 2026-05-05 09:09 | 17.76210 | -64.17585 | 34049 ft | 413 kts | 237° |
| 2026-05-05 09:10 | 17.72943 | -64.22494 | 34048 ft | 413 kts | 237° |
| 2026-05-05 09:10 | 17.69657 | -64.27429 | 34046 ft | 413 kts | 237° |
| 2026-05-05 09:11 | 17.66373 | -64.32365 | 34042 ft | 413 kts | 237° |
| 2026-05-05 09:11 | 17.63080 | -64.37319 | 34042 ft | 414 kts | 237° |
| 2026-05-05 09:12 | 17.59788 | -64.42281 | 34041 ft | 415 kts | 237° |
| 2026-05-05 09:12 | 17.56496 | -64.47250 | 34045 ft | 415 kts | 237° |
| 2026-05-05 09:13 | 17.53208 | -64.52220 | 34048 ft | 415 kts | 237° |
| 2026-05-05 09:13 | 17.49922 | -64.57185 | 34045 ft | 415 kts | 237° |
| 2026-05-05 09:14 | 17.46638 | -64.62151 | 34036 ft | 415 kts | 237° |
| 2026-05-05 09:14 | 17.43348 | -64.67128 | 34040 ft | 414 kts | 237° |
| 2026-05-05 09:15 | 17.40069 | -64.72090 | 34035 ft | 415 kts | 237° |
| 2026-05-05 09:15 | 17.36776 | -64.77070 | 34041 ft | 416 kts | 237° |
| 2026-05-05 09:16 | 17.33482 | -64.82047 | 34040 ft | 416 kts | 237° |
| 2026-05-05 09:16 | 17.30188 | -64.87028 | 34040 ft | 416 kts | 237° |
| 2026-05-05 09:17 | 17.26913 | -64.91982 | 34037 ft | 416 kts | 237° |
| 2026-05-05 09:17 | 17.23618 | -64.96971 | 34037 ft | 416 kts | 237° |
| 2026-05-05 09:18 | 17.20329 | -65.01960 | 34038 ft | 416 kts | 237° |
| 2026-05-05 09:18 | 17.17055 | -65.06937 | 34040 ft | 415 kts | 237° |
| 2026-05-05 09:19 | 17.13780 | -65.11920 | 34032 ft | 415 kts | 237° |
| 2026-05-05 09:19 | 17.10500 | -65.16905 | 34036 ft | 417 kts | 237° |
| 2026-05-05 09:20 | 17.07216 | -65.21894 | 34037 ft | 417 kts | 237° |
| 2026-05-05 09:20 | 17.03927 | -65.26890 | 34037 ft | 417 kts | 237° |
| 2026-05-05 09:21 | 17.00642 | -65.31882 | 34037 ft | 417 kts | 237° |
| 2026-05-05 09:21 | 16.97358 | -65.36868 | 34034 ft | 416 kts | 237° |
| 2026-05-05 09:22 | 16.94078 | -65.41853 | 34033 ft | 416 kts | 237° |
| 2026-05-05 09:22 | 16.90798 | -65.46837 | 34036 ft | 416 kts | 237° |
| 2026-05-05 09:23 | 16.87540 | -65.51793 | 34041 ft | 416 kts | 238° |
| 2026-05-05 09:23 | 16.86219 | -65.54464 | 34028 ft | 412 kts | 253° |
| 2026-05-05 09:23 | 16.85613 | -65.57362 | 34035 ft | 409 kts | 267° |
| 2026-05-05 09:23 | 16.85763 | -65.60324 | 34039 ft | 408 kts | 282° |
| 2026-05-05 09:24 | 16.86653 | -65.63113 | 34030 ft | 406 kts | 297° |
| 2026-05-05 09:24 | 16.88220 | -65.65556 | 34036 ft | 406 kts | 312° |
| 2026-05-05 09:24 | 16.90366 | -65.67484 | 34036 ft | 409 kts | 327° |
| 2026-05-05 09:24 | 16.92928 | -65.68781 | 34050 ft | 412 kts | 339° |
| 2026-05-05 09:25 | 16.95673 | -65.69666 | 34032 ft | 413 kts | 343° |
| 2026-05-05 09:25 | 17.01277 | -65.71090 | 34033 ft | 414 kts | 345° |
| 2026-05-05 09:26 | 17.07004 | -65.71434 | 34033 ft | 419 kts | 9° |
| 2026-05-05 09:26 | 17.09775 | -65.70474 | 34034 ft | 423 kts | 24° |
| 2026-05-05 09:26 | 17.12252 | -65.68791 | 34036 ft | 427 kts | 38° |
| 2026-05-05 09:27 | 17.16414 | -65.64370 | 34036 ft | 431 kts | 46° |
| 2026-05-05 09:27 | 17.20358 | -65.59639 | 34038 ft | 431 kts | 47° |
| 2026-05-05 09:28 | 17.24276 | -65.54884 | 34037 ft | 432 kts | 47° |
| 2026-05-05 09:28 | 17.28208 | -65.50119 | 34019 ft | 430 kts | 47° |
| 2026-05-05 09:28 | 17.30162 | -65.47752 | 33093 ft | 431 kts | 47° |
| 2026-05-05 09:29 | 17.32127 | -65.45379 | 32161 ft | 432 kts | 47° |
| 2026-05-05 09:29 | 17.34103 | -65.42998 | 31213 ft | 433 kts | 47° |
| 2026-05-05 09:29 | 17.36081 | -65.40623 | 30290 ft | 434 kts | 47° |
| 2026-05-05 09:29 | 17.38074 | -65.38237 | 29235 ft | 435 kts | 47° |
| 2026-05-05 09:30 | 17.39842 | -65.35734 | 29228 ft | 431 kts | 60° |
| 2026-05-05 09:30 | 17.40979 | -65.32870 | 29237 ft | 440 kts | 73° |
| 2026-05-05 09:30 | 17.41612 | -65.29719 | 29241 ft | 444 kts | 80° |
| 2026-05-05 09:31 | 17.42730 | -65.23386 | 29245 ft | 441 kts | 76° |
| 2026-05-05 09:31 | 17.43464 | -65.20260 | 28903 ft | 441 kts | 75° |
| 2026-05-05 09:31 | 17.44302 | -65.17176 | 28521 ft | 441 kts | 73° |
| 2026-05-05 09:31 | 17.45207 | -65.14107 | 28149 ft | 441 kts | 72° |
| 2026-05-05 09:32 | 17.46143 | -65.11051 | 27780 ft | 442 kts | 72° |
| 2026-05-05 09:32 | 17.47098 | -65.07977 | 27404 ft | 443 kts | 72° |
| 2026-05-05 09:32 | 17.48042 | -65.04943 | 27044 ft | 445 kts | 72° |
| 2026-05-05 09:32 | 17.48999 | -65.01859 | 26682 ft | 445 kts | 72° |
| 2026-05-05 09:33 | 17.49951 | -64.98781 | 26321 ft | 446 kts | 72° |
| 2026-05-05 09:33 | 17.50905 | -64.95688 | 25976 ft | 445 kts | 72° |
| 2026-05-05 09:33 | 17.51855 | -64.92602 | 25635 ft | 445 kts | 72° |
| 2026-05-05 09:33 | 17.52802 | -64.89518 | 25298 ft | 445 kts | 72° |
| 2026-05-05 09:34 | 17.53749 | -64.86432 | 24958 ft | 443 kts | 73° |
| 2026-05-05 09:34 | 17.54692 | -64.83363 | 24623 ft | 441 kts | 73° |
| 2026-05-05 09:34 | 17.55625 | -64.80324 | 24294 ft | 439 kts | 73° |
| 2026-05-05 09:34 | 17.56557 | -64.77285 | 23960 ft | 436 kts | 75° |
| 2026-05-05 09:35 | 17.57483 | -64.74261 | 23641 ft | 435 kts | 74° |
| 2026-05-05 09:35 | 17.59317 | -64.68265 | 22874 ft | 431 kts | 73° |
| 2026-05-05 09:35 | 17.60228 | -64.65285 | 22483 ft | 428 kts | 73° |
| 2026-05-05 09:36 | 17.61134 | -64.62321 | 22102 ft | 426 kts | 73° |
| 2026-05-05 09:36 | 17.62036 | -64.59367 | 21729 ft | 423 kts | 73° |
| 2026-05-05 09:36 | 17.62929 | -64.56437 | 21345 ft | 422 kts | 72° |
| 2026-05-05 09:36 | 17.63814 | -64.53514 | 20986 ft | 419 kts | 72° |
| 2026-05-05 09:37 | 17.64694 | -64.50606 | 20633 ft | 418 kts | 72° |
| 2026-05-05 09:37 | 17.65573 | -64.47709 | 20281 ft | 415 kts | 72° |
| 2026-05-05 09:37 | 17.66448 | -64.44827 | 19925 ft | 414 kts | 72° |
| 2026-05-05 09:37 | 17.67319 | -64.41962 | 19575 ft | 411 kts | 72° |
| 2026-05-05 09:38 | 17.68184 | -64.39114 | 19238 ft | 410 kts | 71° |
| 2026-05-05 09:38 | 17.69052 | -64.36261 | 18893 ft | 409 kts | 71° |
| 2026-05-05 09:38 | 17.69909 | -64.33435 | 18559 ft | 407 kts | 70° |
| 2026-05-05 09:38 | 17.70768 | -64.30608 | 18212 ft | 405 kts | 71° |
| 2026-05-05 09:39 | 17.71621 | -64.27802 | 17836 ft | 403 kts | 70° |
| 2026-05-05 09:39 | 17.72468 | -64.25010 | 17447 ft | 400 kts | 71° |
| 2026-05-05 09:39 | 17.73309 | -64.22240 | 17074 ft | 398 kts | 71° |
| 2026-05-05 09:39 | 17.74145 | -64.19480 | 16703 ft | 397 kts | 71° |
| 2026-05-05 09:40 | 17.74979 | -64.16730 | 16317 ft | 393 kts | 71° |
| 2026-05-05 09:40 | 17.75805 | -64.14004 | 15962 ft | 392 kts | 71° |
| 2026-05-05 09:40 | 17.76615 | -64.11326 | 15612 ft | 387 kts | 71° |
| 2026-05-05 09:40 | 17.77427 | -64.08640 | 15320 ft | 386 kts | 72° |
| 2026-05-05 09:41 | 17.78238 | -64.05959 | 15050 ft | 383 kts | 72° |
| 2026-05-05 09:41 | 17.79043 | -64.03296 | 14779 ft | 381 kts | 72° |
| 2026-05-05 09:41 | 17.79840 | -64.00655 | 14493 ft | 379 kts | 72° |
| 2026-05-05 09:41 | 17.80633 | -63.98029 | 14223 ft | 377 kts | 73° |
| 2026-05-05 09:42 | 17.81422 | -63.95411 | 13947 ft | 375 kts | 73° |
| 2026-05-05 09:42 | 17.82204 | -63.92815 | 13658 ft | 372 kts | 73° |
| 2026-05-05 09:42 | 17.82983 | -63.90229 | 13344 ft | 371 kts | 73° |
| 2026-05-05 09:42 | 17.83766 | -63.87626 | 13049 ft | 368 kts | 73° |
| 2026-05-05 09:43 | 17.84530 | -63.85087 | 12756 ft | 367 kts | 73° |
| 2026-05-05 09:43 | 17.85294 | -63.82544 | 12453 ft | 364 kts | 73° |
| 2026-05-05 09:43 | 17.85810 | -63.80831 | 12253 ft | 363 kts | 74° |
| 2026-05-05 09:43 | 17.86812 | -63.77494 | 11866 ft | 360 kts | 73° |
| 2026-05-05 09:44 | 17.87320 | -63.75803 | 11676 ft | 359 kts | 73° |
| 2026-05-05 09:44 | 17.88068 | -63.73309 | 11391 ft | 357 kts | 73° |
| 2026-05-05 09:44 | 17.88798 | -63.70857 | 11111 ft | 355 kts | 73° |
| 2026-05-05 09:44 | 17.89542 | -63.68355 | 10818 ft | 355 kts | 73° |
| 2026-05-05 09:45 | 17.90278 | -63.65885 | 10543 ft | 353 kts | 73° |
| 2026-05-05 09:45 | 17.91010 | -63.63432 | 10269 ft | 351 kts | 73° |
| 2026-05-05 09:45 | 17.91741 | -63.60989 | 9985 ft | 350 kts | 73° |
| 2026-05-05 09:45 | 17.92466 | -63.58563 | 9706 ft | 347 kts | 73° |
| 2026-05-05 09:46 | 17.93187 | -63.56151 | 9395 ft | 345 kts | 73° |
| 2026-05-05 09:46 | 17.93894 | -63.53783 | 9099 ft | 343 kts | 73° |
| 2026-05-05 09:46 | 17.94613 | -63.51376 | 8790 ft | 340 kts | 74° |
| 2026-05-05 09:46 | 17.95320 | -63.49011 | 8410 ft | 339 kts | 73° |
| 2026-05-05 09:47 | 17.96020 | -63.46666 | 7827 ft | 336 kts | 73° |
| 2026-05-05 09:47 | 17.96699 | -63.44393 | 7249 ft | 317 kts | 73° |
| 2026-05-05 09:47 | 17.97333 | -63.42272 | 6726 ft | 289 kts | 73° |
| 2026-05-05 09:47 | 17.97908 | -63.40350 | 5894 ft | 266 kts | 74° |
| 2026-05-05 09:48 | 17.98446 | -63.38546 | 4981 ft | 253 kts | 74° |
| 2026-05-05 09:48 | 17.98956 | -63.36833 | 4056 ft | 245 kts | 74° |
| 2026-05-05 09:48 | 17.99450 | -63.35179 | 3573 ft | 229 kts | 75° |
| 2026-05-05 09:48 | 17.99925 | -63.33580 | 3183 ft | 220 kts | 76° |
| 2026-05-05 09:49 | 18.00355 | -63.32138 | 2816 ft | 202 kts | 75° |
| 2026-05-05 09:49 | 18.00766 | -63.30754 | 2576 ft | 196 kts | 76° |
| 2026-05-05 09:49 | 18.01169 | -63.29395 | 2611 ft | 195 kts | 76° |
| 2026-05-05 09:49 | 18.01574 | -63.28024 | 2610 ft | 198 kts | 76° |
| 2026-05-05 09:50 | 18.01890 | -63.26621 | 2607 ft | 195 kts | 83° |
| 2026-05-05 09:50 | 18.02103 | -63.25256 | 2509 ft | 179 kts | 84° |
| 2026-05-05 09:50 | 18.02286 | -63.24028 | 2471 ft | 166 kts | 83° |
| 2026-05-05 09:50 | 18.02458 | -63.22846 | 2509 ft | 163 kts | 83° |
| 2026-05-05 09:51 | 18.02630 | -63.21670 | 2511 ft | 163 kts | 84° |
| 2026-05-05 09:51 | 18.02801 | -63.20480 | 2420 ft | 167 kts | 84° |
| 2026-05-05 09:51 | 18.02977 | -63.19257 | 2051 ft | 170 kts | 84° |
| 2026-05-05 09:51 | 18.03154 | -63.18024 | 1653 ft | 171 kts | 84° |
| 2026-05-05 09:52 | 18.03331 | -63.16787 | 1298 ft | 171 kts | 83° |
| 2026-05-05 09:52 | 18.03505 | -63.15580 | 885 ft | 159 kts | 83° |
| 2026-05-05 09:52 | 18.03643 | -63.14516 | 550 ft | 140 kts | 88° |
| 2026-05-05 09:52 | 18.03703 | -63.13531 | 327 ft | 132 kts | 82° |
| 2026-05-05 09:53 | 18.03858 | -63.12615 | 147 ft | 125 kts | 85° |
| 2026-05-05 09:53 | 18.03932 | -63.12051 | 72 ft | 128 kts | 83° |
| 2026-05-05 09:54 | 18.03959 | -63.11873 | 49 ft | 129 kts | 84° |
| 2026-05-05 09:56 | 18.04007 | -63.11511 | 30 ft | 121 kts | 84° |
| 2026-05-05 09:56 | 18.04111 | -63.10762 | 28 ft | 84 kts | 80° |
| 2026-05-05 09:57 | 18.04180 | -63.10283 | 27 ft | 49 kts | 81° |
| 2026-05-05 09:57 | 18.04218 | -63.10015 | 27 ft | 26 kts | 82° |
| 2026-05-05 09:57 | 18.04272 | -63.09902 | 28 ft | 15 kts | 51° |
| 2026-05-05 09:57 | 18.04288 | -63.09875 | 28 ft | 3 kts | 71° |
| 2026-05-05 09:58 | 18.04272 | -63.09836 | 28 ft | 8 kts | 136° |
| 2026-05-05 09:58 | 18.04245 | -63.09835 | 28 ft | 5 kts | 202° |
| 2026-05-05 09:58 | 18.04231 | -63.09888 | 28 ft | 13 kts | 276° |
| 2026-05-05 09:58 | 18.04212 | -63.10030 | 26 ft | 28 kts | 257° |
| 2026-05-05 09:59 | 18.04178 | -63.10297 | 27 ft | 45 kts | 261° |
| 2026-05-05 09:59 | 18.04133 | -63.10616 | 29 ft | 43 kts | 261° |
| 2026-05-05 09:59 | 18.04090 | -63.10917 | 28 ft | 41 kts | 261° |
| 2026-05-05 09:59 | 18.04055 | -63.11158 | 29 ft | 23 kts | 261° |
| 2026-05-05 10:00 | 18.04048 | -63.11264 | 28 ft | 4 kts | 288° |
| 2026-05-05 10:00 | 18.04066 | -63.11279 | 28 ft | 6 kts | 330° |
| 2026-05-05 10:00 | 18.04134 | -63.11295 | 28 ft | 13 kts | 351° |
| 2026-05-05 10:00 | 18.04217 | -63.11311 | 28 ft | 9 kts | 339° |
| 2026-05-05 10:01 | 18.04237 | -63.11333 | 28 ft | 2 kts | 291° |
| 2026-05-05 10:01 | 18.04236 | -63.11385 | 28 ft | 13 kts | 265° |
| 2026-05-05 10:01 | 18.04244 | -63.11420 | 27 ft | 4 kts | 306° |
| 2026-05-05 10:01 | 18.04254 | -63.11426 | 27 ft | 0 kts | 335° |
| 2026-05-05 10:02 | 18.04267 | -63.11425 | 28 ft | 2 kts | 5° |
| 2026-05-05 10:02 | 18.04297 | -63.11427 | 28 ft | 4 kts | 353° |
| 2026-05-05 10:02 | 18.04305 | -63.11428 | 28 ft | 1 kts | 352° |
| 2026-05-05 10:02 | 18.04311 | -63.11429 | 28 ft | 2 kts | 352° |
| 2026-05-05 10:03 | 18.04317 | -63.11430 | 28 ft | 0 kts | 352° |